Portsmouth, Virginia - KPWR: 24-hour Summary Portsmouth Weather Records Service - Portsmouth, Virginia



LOCAL CLIMATOLOGICAL DATA: This Month's Data
[updated each morning between 7AM and 9AM]
Station: Portsmouth, Virginia - KPWR Latitude: 36° 48' 04" N Longitude: 76° 19' 37" W Elevation (ground): 13 ft. Time Zone: Eastern

BE SURE TO RELOAD/REFRESH THIS SCREEN FOR DAILY UPDATES BY RIGHT-CLICKING THE BACKGROUND The data in this frame and listed below are final adjusted site data for the time period.

-------------------------------------------------------------------------------------------------------------------------------------------
SATURDAY		Temp	Hi	Low	Out	Dew	Wind	Wind	Wind	Hi	Hi	Wind	Heat	THW			Rain	Heat	Cool	In 	In	In 	In 	Wind	Wind	ISS 	Arc.
Date		Time	Out	Temp	Temp	Hum	Pt.	Speed	Dir	Run	Speed	Dir	Chill	Index	Index	Bar  	Rain	Rate	D-D 	D-D 	Temp	Hum	Dew	Heat	Samp	Tx 	Recept	Int.
09/01/18	1:00 a	72.4	72.7	72.4	99	72.1	0.0	---	0.00	0.0	---	72.4	75.8	75.8	30.168	0.00	0.00	0.000	0.308	84.9	33	52.6	83.7	1404	1	100.0	60
09/01/18	2:00 a	72.0	72.5	72.0	99	71.7	0.0	---	0.00	0.0	---	72.0	75.4	75.4	30.156	0.00	0.00	0.000	0.292	84.8	34	53.3	83.8	1405	1	100.0	60
09/01/18	3:00 a	72.0	72.2	71.9	99	71.7	0.0	---	0.00	0.0	---	72.0	75.4	75.4	30.162	0.00	0.00	0.000	0.292	84.7	35	54.0	83.9	1404	1	100.0	60
09/01/18	4:00 a	71.9	72.0	71.8	100	71.9	0.0	---	0.00	0.0	---	71.9	75.5	75.5	30.156	0.00	0.00	0.000	0.288	83.3	33	51.2	81.9	1405	1	100.0	60
09/01/18	5:00 a	72.1	72.2	71.9	100	72.1	0.0	---	0.00	0.0	---	72.1	75.7	75.7	30.151	0.00	0.00	0.000	0.296	83.5	34	52.2	82.4	1405	1	100.0	60
09/01/18	6:00 a	71.9	72.1	71.8	100	71.9	0.0	---	0.00	0.0	---	71.9	75.5	75.5	30.161	0.00	0.00	0.000	0.288	83.5	35	53.0	82.6	1405	1	100.0	60
09/01/18	7:00 a	71.7	71.9	71.7	100	71.7	0.0	---	0.00	0.0	---	71.7	75.3	75.3	30.177	0.00	0.00	0.000	0.279	83.8	35	53.2	83.0	1405	1	100.0	60
09/01/18	8:00 a	72.6	72.6	71.7	100	72.6	0.0	---	0.00	0.0	---	72.6	76.2	76.2	30.190	0.00	0.00	0.000	0.317	82.3	33	50.3	80.8	1405	1	100.0	60
09/01/18	9:00 a	76.3	76.4	72.6	100	76.3	0.0	---	0.00	0.0	---	76.3	80.9	80.9	30.193	0.00	0.00	0.000	0.471	83.2	34	51.9	81.9	1405	1	100.0	60
09/01/18	10:00 a	80.5	80.5	76.4	93	78.3	0.0	ENE	0.00	4.0	S	80.5	88.8	88.8	30.199	0.00	0.00	0.000	0.646	83.7	34	52.3	82.7	1405	1	100.0	60
09/01/18	11:00 a	84.5	84.5	80.5	85	79.5	0.0	ENE	0.00	5.0	ENE	84.5	97.3	97.3	30.203	0.00	0.00	0.000	0.813	87.1	35	56.1	86.3	1405	1	100.0	60
09/01/18	12:00 p	86.9	86.9	84.5	75	78.0	0.0	SE	0.00	6.0	SE	86.9	99.3	99.3	30.195	0.00	0.00	0.000	0.913	88.2	32	54.6	86.4	1405	1	100.0	60
09/01/18	1:00 p	89.6	89.6	86.9	70	78.5	0.0	SSE	0.00	5.0	ESE	89.6	104.4	104.4	30.188	0.00	0.00	0.000	1.025	87.8	38	59.0	87.4	1405	1	100.0	60
09/01/18	2:00 p	90.6	90.6	89.5	70	79.5	0.0	SSE	0.00	6.0	SE	90.6	107.7	107.7	30.172	0.00	0.00	0.000	1.067	86.4	33	53.9	85.3	1405	1	100.0	60
09/01/18	3:00 p	83.5	90.6	83.5	84	78.2	0.0	NE	0.00	6.0	SSE	83.5	94.3	94.3	30.158	0.02	0.53	0.000	0.771	88.3	41	61.6	89.0	1405	1	100.0	60
09/01/18	4:00 p	82.8	83.5	81.5	82	76.7	0.0	ENE	0.00	6.0	NNE	82.8	91.7	91.7	30.151	0.00	0.00	0.000	0.742	88.4	34	56.5	87.2	1405	1	100.0	60
09/01/18	5:00 p	79.0	82.8	79.0	87	74.8	0.0	NNE	0.00	4.0	NNE	79.0	84.1	84.1	30.154	0.00	0.00	0.000	0.583	91.3	35	59.8	91.6	1404	1	100.0	60
09/01/18	6:00 p	78.6	79.0	78.6	84	73.4	0.0	ENE	0.00	4.0	ENE	78.6	82.9	82.9	30.174	0.00	0.00	0.000	0.567	89.9	34	57.8	89.6	1405	1	100.0	60
09/01/18	7:00 p	78.1	78.6	78.1	89	74.6	0.0	---	0.00	0.0	---	78.1	82.8	82.8	30.183	0.00	0.00	0.000	0.546	87.9	33	55.2	86.3	1405	1	100.0	60
09/01/18	8:00 p	77.9	78.2	77.9	91	75.1	0.0	W	0.00	5.0	W	77.9	82.7	82.7	30.195	0.00	0.00	0.000	0.538	87.5	33	54.9	86.1	1405	1	100.0	60
09/01/18	9:00 p	76.5	77.9	76.5	92	74.0	0.0	---	0.00	0.0	---	76.5	80.5	80.5	30.188	0.00	0.00	0.000	0.479	86.3	33	53.8	85.2	1405	1	100.0	60
09/01/18	10:00 p	75.4	76.5	75.4	94	73.6	0.0	ENE	0.00	4.0	ENE	75.4	79.1	79.1	30.192	0.00	0.00	0.000	0.433	85.6	33	53.2	84.5	1405	1	100.0	60
09/01/18	11:00 p	74.5	75.4	74.5	95	73.0	0.0	---	0.00	0.0	---	74.5	77.8	77.8	30.189	0.00	0.00	0.000	0.396	84.8	33	52.5	83.6	1405	1	100.0	60
09/02/18	12:00 a	74.2	74.5	74.1	97	73.3	0.0	---	0.00	0.0	---	74.2	77.5	77.5	30.202	0.00	0.00	0.000	0.383	85.0	33	52.7	83.8	1405	1	100.0	60

SUNDAY			Temp	Hi	Low	Out	Dew	Wind	Wind	Wind	Hi	Hi	Wind	Heat	THW			Rain	Heat	Cool	In 	In	In 	In 	Wind	Wind	ISS 	Arc.
Date		Time	Out	Temp	Temp	Hum	Pt.	Speed	Dir	Run	Speed	Dir	Chill	Index	Index	Bar  	Rain	Rate	D-D 	D-D 	Temp	Hum	Dew	Heat	Samp	Tx 	Recept	Int.
09/02/18	1:00 a	74.0	74.3	74.0	97	73.1	0.0	---	0.00	0.0	---	74.0	77.2	77.2	30.193	0.00	0.00	0.000	0.375	83.9	33	51.7	82.8	1404	1	100.0	60
09/02/18	2:00 a	73.3	74.1	73.3	98	72.7	0.0	---	0.00	0.0	---	73.3	76.6	76.6	30.182	0.00	0.00	0.000	0.346	84.2	34	52.8	83.3	1405	1	100.0	60
09/02/18	3:00 a	72.5	73.3	72.5	98	71.9	0.0	---	0.00	0.0	---	72.5	75.8	75.8	30.174	0.00	0.00	0.000	0.313	84.1	34	52.7	83.2	1405	1	100.0	60
09/02/18	4:00 a	71.8	72.5	71.8	98	71.2	0.0	---	0.00	0.0	---	71.8	75.1	75.1	30.166	0.00	0.00	0.000	0.283	84.3	34	52.9	83.4	1405	1	100.0	60
09/02/18	5:00 a	71.7	71.8	71.5	98	71.1	0.0	---	0.00	0.0	---	71.7	75.0	75.0	30.181	0.00	0.00	0.000	0.279	84.2	35	53.6	83.5	1405	1	100.0	60
09/02/18	6:00 a	71.1	71.7	71.1	99	70.8	0.0	---	0.00	0.0	---	71.1	74.6	74.6	30.199	0.00	0.00	0.000	0.254	84.0	35	53.4	83.3	1404	1	100.0	60
09/02/18	7:00 a	70.7	71.2	70.7	99	70.4	0.0	---	0.00	0.0	---	70.7	74.1	74.1	30.222	0.00	0.00	0.000	0.237	82.5	34	51.3	81.1	1405	1	100.0	60
09/02/18	8:00 a	72.2	72.2	70.7	100	72.2	0.0	---	0.00	0.0	---	72.2	75.8	75.8	30.237	0.00	0.00	0.000	0.300	79.3	37	50.8	78.2	1406	1	100.0	60
09/02/18	9:00 a	77.9	77.9	72.3	91	75.1	0.0	SW	0.00	4.0	SW	77.9	82.7	82.7	30.239	0.00	0.00	0.000	0.538	78.6	38	50.9	77.6	1404	1	100.0	60
09/02/18	10:00 a	81.6	81.6	78.0	84	76.3	0.0	E	0.00	4.0	E	81.6	89.1	89.1	30.249	0.00	0.00	0.000	0.692	80.4	38	52.5	79.2	1405	1	100.0	60
09/02/18	11:00 a	84.0	84.0	81.6	78	76.4	0.0	ENE	0.00	4.0	ENE	84.0	93.8	93.8	30.250	0.00	0.00	0.000	0.792	82.7	38	54.5	82.0	1405	1	100.0	60
09/02/18	12:00 p	86.3	86.3	84.0	71	75.8	0.0	NE	0.00	5.0	NE	86.3	96.3	96.3	30.236	0.00	0.00	0.000	0.888	84.4	39	56.7	84.4	1405	1	100.0	60
09/02/18	1:00 p	88.3	88.3	86.3	69	76.8	0.0	NE	0.00	7.0	ENE	88.3	99.5	99.5	30.216	0.00	0.00	0.000	0.971	85.9	36	55.8	85.4	1405	1	100.0	60
09/02/18	2:00 p	89.1	89.1	88.3	68	77.2	0.0	NE	0.00	6.0	NE	89.1	101.6	101.6	30.194	0.00	0.00	0.000	1.004	87.8	40	60.5	88.0	1405	1	100.0	60
09/02/18	3:00 p	89.7	90.0	89.0	65	76.4	0.0	NE	0.00	6.0	NE	89.7	101.8	101.8	30.181	0.00	0.00	0.000	1.029	88.0	36	57.7	87.1	1405	1	100.0	60
09/02/18	4:00 p	89.7	89.7	89.1	68	77.7	0.0	NE	0.00	10.0	ENE	89.7	103.6	103.6	30.170	0.00	0.00	0.000	1.029	90.6	37	60.8	91.3	1405	1	100.0	60
09/02/18	5:00 p	87.6	89.8	87.6	75	78.7	0.0	SE	0.00	10.0	NE	87.6	100.7	100.7	30.166	0.00	0.00	0.000	0.942	87.7	34	55.9	86.4	1405	1	100.0	60
09/02/18	6:00 p	84.8	87.6	84.8	78	77.2	0.0	SSW	0.00	5.0	SSW	84.8	95.3	95.3	30.169	0.00	0.00	0.000	0.825	88.6	37	59.0	88.3	1405	1	100.0	60
09/02/18	7:00 p	82.7	84.8	82.7	83	77.0	0.0	SSW	0.00	4.0	SSW	82.7	91.7	91.7	30.180	0.00	0.00	0.000	0.737	85.2	34	53.7	84.2	1405	1	100.0	60
09/02/18	8:00 p	81.0	82.7	81.0	85	76.1	0.0	---	0.00	0.0	---	81.0	87.8	87.8	30.194	0.00	0.00	0.000	0.667	86.6	36	56.5	86.1	1404	1	100.0	60
09/02/18	9:00 p	79.5	81.0	79.5	90	76.3	0.0	---	0.00	0.0	---	79.5	85.8	85.8	30.202	0.00	0.00	0.000	0.604	88.0	30	52.7	85.7	1405	1	100.0	60
09/02/18	10:00 p	78.5	79.5	78.5	94	76.6	0.0	---	0.00	0.0	---	78.5	84.4	84.4	30.214	0.00	0.00	0.000	0.563	88.6	33	55.8	87.2	1405	1	100.0	60
09/02/18	11:00 p	77.9	78.5	77.9	95	76.4	0.0	---	0.00	0.0	---	77.9	83.2	83.2	30.216	0.00	0.00	0.000	0.538	83.7	34	52.3	82.7	1405	1	100.0	60
09/03/18	12:00 a	77.2	78.0	77.2	96	76.0	0.0	---	0.00	0.0	---	77.2	82.0	82.0	30.225	0.00	0.00	0.000	0.508	82.5	37	53.6	81.6	1405	1	100.0	60

MONDAY			Temp	Hi	Low	Out	Dew	Wind	Wind	Wind	Hi	Hi	Wind	Heat	THW			Rain	Heat	Cool	In 	In	In 	In 	Wind	Wind	ISS 	Arc.
Date		Time	Out	Temp	Temp	Hum	Pt.	Speed	Dir	Run	Speed	Dir	Chill	Index	Index	Bar  	Rain	Rate	D-D 	D-D 	Temp	Hum	Dew	Heat	Samp	Tx 	Recept	Int.
09/03/18	1:00 a	76.6	77.2	76.6	97	75.7	0.0	---	0.00	0.0	---	76.6	81.1	81.1	30.220	0.00	0.00	0.000	0.483	82.6	38	54.4	81.8	1404	1	100.0	60
09/03/18	2:00 a	76.2	76.6	76.2	97	75.3	0.0	---	0.00	0.0	---	76.2	80.5	80.5	30.225	0.00	0.00	0.000	0.467	82.5	38	54.3	81.7	1405	1	100.0	60
09/03/18	3:00 a	75.5	76.2	75.5	98	74.9	0.0	---	0.00	0.0	---	75.5	79.5	79.5	30.226	0.00	0.00	0.000	0.438	80.6	37	51.9	79.3	1405	1	100.0	60
09/03/18	4:00 a	74.9	75.6	74.9	98	74.3	0.0	---	0.00	0.0	---	74.9	78.6	78.6	30.223	0.00	0.00	0.000	0.413	80.9	38	52.9	79.7	1405	1	100.0	60
09/03/18	5:00 a	74.5	74.9	74.5	98	73.9	0.0	---	0.00	0.0	---	74.5	78.1	78.1	30.229	0.00	0.00	0.000	0.396	81.0	39	53.7	79.9	1405	1	100.0	60
09/03/18	6:00 a	74.2	74.5	74.2	99	73.9	0.0	---	0.00	0.0	---	74.2	77.7	77.7	30.236	0.00	0.00	0.000	0.383	84.3	35	53.7	83.6	1405	1	100.0	60
09/03/18	7:00 a	74.0	74.2	73.9	99	73.7	0.0	---	0.00	0.0	---	74.0	77.5	77.5	30.251	0.00	0.00	0.000	0.375	84.3	34	52.9	83.4	1405	1	100.0	60
09/03/18	8:00 a	75.5	75.5	73.9	100	75.5	0.0	---	0.00	0.0	---	75.5	79.6	79.6	30.265	0.00	0.00	0.000	0.438	84.6	35	53.9	83.8	1405	1	100.0	60
09/03/18	9:00 a	78.0	78.0	75.5	99	77.7	0.0	NW	0.00	4.0	SW	78.0	84.2	84.2	30.266	0.00	0.00	0.000	0.542	85.2	35	54.5	84.4	1404	1	100.0	60
09/03/18	10:00 a	82.7	82.7	78.0	87	78.4	0.0	ENE	0.00	5.0	ENE	82.7	93.0	93.0	30.268	0.00	0.00	0.000	0.737	86.2	35	55.3	85.5	1405	1	100.0	60
09/03/18	11:00 a	86.5	86.5	82.7	77	78.4	0.0	E	0.00	6.0	E	86.5	99.2	99.2	30.266	0.00	0.00	0.000	0.896	87.8	34	55.9	86.5	1406	1	100.0	60
09/03/18	12:00 p	88.3	88.3	86.5	73	78.5	0.0	NE	0.00	5.0	NE	88.3	101.6	101.6	30.255	0.00	0.00	0.000	0.971	89.4	37	59.7	89.6	1404	1	100.0	60
09/03/18	1:00 p	89.0	89.2	88.3	69	77.5	0.0	NW	0.00	10.0	NE	89.0	101.8	101.8	30.241	0.00	0.00	0.000	1.000	90.1	33	57.1	89.7	1405	1	100.0	60
09/03/18	2:00 p	89.3	89.3	88.7	72	79.1	0.0	NNE	0.00	7.0	N	89.3	104.7	104.7	30.228	0.00	0.00	0.000	1.013	91.5	36	60.8	92.3	1405	1	100.0	60
09/03/18	3:00 p	91.5	91.5	89.3	70	80.3	0.0	S	0.00	6.0	S	91.5	110.7	110.7	30.205	0.00	0.00	0.000	1.104	91.1	32	57.1	90.7	1405	1	100.0	60
09/03/18	4:00 p	90.4	92.1	90.4	71	79.7	0.0	SSE	0.00	6.0	SE	90.4	107.9	107.9	30.194	0.00	0.00	0.000	1.058	93.2	35	61.5	94.3	1405	1	100.0	60
09/03/18	5:00 p	86.9	90.4	86.9	75	78.0	0.0	S	0.00	4.0	S	86.9	99.3	99.3	30.186	0.00	0.00	0.000	0.913	90.9	32	57.0	90.5	1405	1	100.0	60
09/03/18	6:00 p	85.6	86.9	85.6	77	77.6	0.0	NNE	0.00	4.0	NNE	85.6	96.8	96.8	30.193	0.00	0.00	0.000	0.858	91.9	33	58.7	92.0	1405	1	100.0	60
09/03/18	7:00 p	84.7	85.6	84.7	79	77.5	0.0	ESE	0.00	5.0	ESE	84.7	95.5	95.5	30.195	0.00	0.00	0.000	0.821	90.2	33	57.2	89.8	1405	1	100.0	60
09/03/18	8:00 p	82.4	84.8	82.4	84	77.1	0.0	SSE	0.00	4.0	SSE	82.4	91.2	91.2	30.205	0.00	0.00	0.000	0.725	90.4	32	56.5	89.9	1405	1	100.0	60
09/03/18	9:00 p	80.3	82.4	80.3	87	76.1	0.0	SSE	0.00	4.0	SSE	80.3	86.8	86.8	30.216	0.00	0.00	0.000	0.638	88.8	33	56.0	87.5	1405	1	100.0	60
09/03/18	10:00 p	78.8	80.3	78.8	90	75.6	0.0	---	0.00	0.0	---	78.8	84.3	84.3	30.238	0.00	0.00	0.000	0.575	88.4	32	54.8	86.7	1405	1	100.0	60
09/03/18	11:00 p	77.8	78.8	77.8	93	75.6	0.0	---	0.00	0.0	---	77.8	82.8	82.8	30.239	0.00	0.00	0.000	0.533	87.2	33	54.6	85.9	1405	1	100.0	60
09/04/18	12:00 a	77.0	77.8	77.0	95	75.5	0.0	ESE	0.00	4.0	ESE	77.0	81.5	81.5	30.239	0.00	0.00	0.000	0.500	87.6	34	55.8	86.3	1404	1	100.0	60

TUESDAY			Temp	Hi	Low	Out	Dew	Wind	Wind	Wind	Hi	Hi	Wind	Heat	THW			Rain	Heat	Cool	In 	In	In 	In 	Wind	Wind	ISS 	Arc.
Date		Time	Out	Temp	Temp	Hum	Pt.	Speed	Dir	Run	Speed	Dir	Chill	Index	Index	Bar  	Rain	Rate	D-D 	D-D 	Temp	Hum	Dew	Heat	Samp	Tx 	Recept	Int.
09/04/18	1:00 a	76.2	77.0	76.2	95	74.7	0.0	---	0.00	0.0	---	76.2	80.3	80.3	30.229	0.00	0.00	0.000	0.467	85.9	33	53.5	84.8	1403	1	100.0	60
09/04/18	2:00 a	75.5	76.2	75.5	96	74.3	0.0	---	0.00	0.0	---	75.5	79.4	79.4	30.218	0.00	0.00	0.000	0.438	86.2	34	54.5	85.3	1405	1	100.0	60
09/04/18	3:00 a	75.0	75.5	75.0	97	74.1	0.0	---	0.00	0.0	---	75.0	78.7	78.7	30.208	0.00	0.00	0.000	0.417	86.2	34	54.5	85.3	1405	1	100.0	60
09/04/18	4:00 a	74.5	75.0	74.5	97	73.6	0.0	---	0.00	0.0	---	74.5	78.0	78.0	30.199	0.00	0.00	0.000	0.396	84.6	33	52.3	83.4	1405	1	100.0	60
09/04/18	5:00 a	74.1	74.5	74.1	97	73.2	0.0	---	0.00	0.0	---	74.1	77.4	77.4	30.196	0.00	0.00	0.000	0.379	84.9	34	53.4	83.9	1405	1	100.0	60
09/04/18	6:00 a	73.6	74.2	73.6	98	73.0	0.0	---	0.00	0.0	---	73.6	76.9	76.9	30.202	0.00	0.00	0.000	0.358	85.0	35	54.3	84.2	1405	1	100.0	60
09/04/18	7:00 a	73.2	73.6	73.2	98	72.6	0.0	---	0.00	0.0	---	73.2	76.5	76.5	30.211	0.00	0.00	0.000	0.342	84.6	33	52.3	83.4	1405	1	100.0	60
09/04/18	8:00 a	74.7	74.7	73.2	100	74.7	0.0	---	0.00	0.0	---	74.7	78.4	78.4	30.223	0.00	0.00	0.000	0.404	83.9	34	52.5	83.0	1405	1	100.0	60
09/04/18	9:00 a	79.0	79.0	74.7	96	77.8	0.0	NE	0.00	5.0	ENE	79.0	86.0	86.0	30.222	0.00	0.00	0.000	0.583	85.3	35	54.5	84.5	1405	1	100.0	60
09/04/18	10:00 a	83.9	83.9	79.0	86	79.3	0.0	NE	0.00	10.0	WNW	83.9	96.2	96.2	30.234	0.00	0.00	0.000	0.788	85.7	34	54.1	84.8	1405	1	100.0	60
09/04/18	11:00 a	87.2	87.2	83.9	78	79.5	0.0	NE	0.00	7.0	NE	87.2	101.5	101.5	30.237	0.00	0.00	0.000	0.925	88.6	34	56.6	87.5	1405	1	100.0	60
09/04/18	12:00 p	88.6	88.8	87.2	71	78.0	0.0	ENE	0.00	7.0	ENE	88.6	101.6	101.6	30.225	0.00	0.00	0.000	0.983	88.9	34	56.9	87.9	1404	1	100.0	60
09/04/18	1:00 p	90.4	90.4	88.5	65	77.0	0.0	ENE	0.00	10.0	NE	90.4	103.9	103.9	30.218	0.00	0.00	0.000	1.058	91.5	31	56.6	91.0	1405	1	100.0	60
09/04/18	2:00 p	90.8	90.9	90.3	61	75.5	0.0	NE	0.00	12.0	ENE	90.8	102.4	102.4	30.208	0.00	0.00	0.000	1.075	91.7	34	59.3	92.0	1405	1	100.0	60
09/04/18	3:00 p	91.1	91.1	90.3	63	76.7	0.0	ENE	0.00	7.0	SSW	91.1	104.6	104.6	30.189	0.00	0.00	0.000	1.087	93.9	29	56.8	93.5	1405	1	100.0	60
09/04/18	4:00 p	90.7	91.5	90.7	63	76.4	0.0	NE	0.00	14.0	ENE	90.7	103.5	103.5	30.171	0.00	0.00	0.000	1.071	94.8	29	57.6	94.7	1405	1	100.0	60
09/04/18	5:00 p	90.3	90.8	90.3	64	76.5	0.0	NE	0.00	11.0	NE	90.3	103.0	103.0	30.162	0.00	0.00	0.000	1.054	96.7	27	57.2	96.6	1405	1	100.0	60
09/04/18	6:00 p	89.1	90.3	89.1	66	76.3	0.0	NE	0.00	6.0	S	89.1	100.5	100.5	30.161	0.00	0.00	0.000	1.004	95.2	28	57.0	94.9	1405	1	100.0	60
09/04/18	7:00 p	86.7	89.1	86.7	69	75.3	0.0	SSE	0.00	7.0	SSE	86.7	96.5	96.5	30.160	0.00	0.00	0.000	0.904	95.9	28	57.6	95.8	1405	1	100.0	60
09/04/18	8:00 p	83.4	86.7	83.4	77	75.4	0.0	NE	0.00	4.0	NE	83.4	91.8	91.8	30.173	0.00	0.00	0.000	0.767	91.7	32	57.7	91.5	1405	1	100.0	60
09/04/18	9:00 p	80.9	83.4	80.9	82	74.9	0.0	---	0.00	0.0	---	80.9	86.8	86.8	30.194	0.00	0.00	0.000	0.663	91.1	32	57.1	90.7	1405	1	100.0	60
09/04/18	10:00 p	79.3	80.9	79.3	86	74.7	0.0	---	0.00	0.0	---	79.3	84.5	84.5	30.201	0.00	0.00	0.000	0.596	89.3	32	55.6	88.1	1405	1	100.0	60
09/04/18	11:00 p	78.1	79.3	78.1	88	74.3	0.0	---	0.00	0.0	---	78.1	82.7	82.7	30.208	0.00	0.00	0.000	0.546	88.6	31	54.1	86.7	1405	1	100.0	60
09/05/18	12:00 a	77.0	78.1	77.0	90	73.8	0.0	---	0.00	0.0	---	77.0	81.0	81.0	30.199	0.00	0.00	0.000	0.500	85.7	30	50.7	84.0	1405	1	100.0	60

THURSDAY		Temp	Hi	Low	Out	Dew	Wind	Wind	Wind	Hi	Hi	Wind	Heat	THW			Rain	Heat	Cool	In 	In	In 	In 	Wind	Wind	ISS 	Arc.
Date		Time	Out	Temp	Temp	Hum	Pt.	Speed	Dir	Run	Speed	Dir	Chill	Index	Index	Bar  	Rain	Rate	D-D 	D-D 	Temp	Hum	Dew	Heat	Samp	Tx 	Recept	Int.
09/05/18	1:00 a	75.9	77.0	75.9	93	73.7	0.0	---	0.00	0.0	---	75.9	79.7	79.7	30.195	0.00	0.00	0.000	0.454	86.7	32	53.3	85.3	1403	1	100.0	60
09/05/18	2:00 a	75.0	75.9	75.0	95	73.5	0.0	---	0.00	0.0	---	75.0	78.7	78.7	30.181	0.00	0.00	0.000	0.417	86.7	33	54.2	85.5	1405	1	100.0	60
09/05/18	3:00 a	74.1	75.0	74.1	95	72.6	0.0	---	0.00	0.0	---	74.1	77.2	77.2	30.181	0.00	0.00	0.000	0.379	86.7	33	54.2	85.5	1405	1	100.0	60
09/05/18	4:00 a	73.6	74.1	73.5	96	72.4	0.0	---	0.00	0.0	---	73.6	76.7	76.7	30.185	0.00	0.00	0.000	0.358	85.7	32	52.4	84.4	1405	1	100.0	60
09/05/18	5:00 a	72.7	73.6	72.7	96	71.5	0.0	---	0.00	0.0	---	72.7	75.7	75.7	30.184	0.00	0.00	0.000	0.321	85.0	33	52.7	83.8	1405	1	100.0	60
09/05/18	6:00 a	72.2	72.8	72.2	97	71.3	0.0	---	0.00	0.0	---	72.2	75.3	75.3	30.198	0.00	0.00	0.000	0.300	85.1	34	53.6	84.1	1405	1	100.0	60
09/05/18	7:00 a	71.9	72.2	71.9	98	71.3	0.0	---	0.00	0.0	---	71.9	75.2	75.2	30.217	0.00	0.00	0.000	0.288	85.0	34	53.5	84.0	1405	1	100.0	60
09/05/18	8:00 a	73.4	73.4	71.9	100	73.4	0.0	---	0.00	0.0	---	73.4	77.0	77.0	30.222	0.00	0.00	0.000	0.350	83.7	32	50.7	82.3	1405	1	100.0	60
09/05/18	9:00 a	77.1	77.1	73.4	97	76.2	0.0	---	0.00	0.0	---	77.1	82.0	82.0	30.221	0.00	0.00	0.000	0.504	84.9	34	53.4	83.9	1405	1	100.0	60
09/05/18	10:00 a	81.9	81.9	77.1	84	76.6	0.0	NE	0.00	6.0	ENE	81.9	89.8	89.8	30.227	0.00	0.00	0.000	0.704	87.0	33	54.4	85.8	1405	1	100.0	60
09/05/18	11:00 a	85.4	85.4	81.9	71	74.9	0.0	NE	0.00	5.0	ESE	85.4	94.2	94.2	30.230	0.00	0.00	0.000	0.850	88.2	34	56.3	86.9	1405	1	100.0	60
09/05/18	12:00 p	87.4	87.4	85.4	72	77.3	0.0	NE	0.00	11.0	ENE	87.4	99.0	99.0	30.221	0.00	0.00	0.000	0.933	89.2	30	53.7	87.4	1405	1	100.0	60
09/05/18	1:00 p	89.3	89.3	87.4	67	76.9	0.0	NE	0.00	6.0	N	89.3	101.7	101.7	30.206	0.00	0.00	0.000	1.013	91.1	35	59.6	91.3	1405	1	100.0	60
09/05/18	2:00 p	91.3	91.3	89.3	62	76.5	0.0	E	0.00	7.0	SSW	91.3	104.4	104.4	30.194	0.00	0.00	0.000	1.096	92.8	29	55.9	92.1	1405	1	100.0	60
09/05/18	3:00 p	92.2	92.2	91.3	60	76.3	0.0	SSE	0.00	7.0	ESE	92.2	105.5	105.5	30.174	0.00	0.00	0.000	1.133	94.3	34	61.6	95.6	1405	1	100.0	60
09/05/18	4:00 p	89.9	92.4	89.9	62	75.1	0.0	NE	0.00	12.0	NE	89.9	100.7	100.7	30.162	0.00	0.00	0.000	1.038	94.5	27	55.4	93.6	1404	1	100.0	60
09/05/18	5:00 p	89.8	90.2	89.5	64	76.0	0.0	NE	0.00	7.0	ENE	89.8	101.6	101.6	30.145	0.00	0.00	0.000	1.033	95.5	33	61.8	97.1	1405	1	100.0	60
09/05/18	6:00 p	88.4	89.9	88.4	68	76.5	0.0	SE	0.00	5.0	S	88.4	99.4	99.4	30.144	0.00	0.00	0.000	0.975	94.3	26	54.1	93.0	1405	1	100.0	60
09/05/18	7:00 p	86.5	88.4	86.5	69	75.1	0.0	NNE	0.00	6.0	NNE	86.5	96.0	96.0	30.148	0.00	0.00	0.000	0.896	94.5	28	56.4	94.0	1405	1	100.0	60
09/05/18	8:00 p	83.5	86.4	83.5	76	75.1	0.0	ESE	0.00	5.0	ESE	83.5	91.7	91.7	30.150	0.00	0.00	0.000	0.771	90.5	31	55.7	89.8	1405	1	100.0	60
09/05/18	9:00 p	81.2	83.5	81.2	81	74.8	0.0	---	0.00	0.0	---	81.2	87.2	87.2	30.172	0.00	0.00	0.000	0.675	90.9	32	57.0	90.5	1405	1	100.0	60
09/05/18	10:00 p	79.7	81.2	79.7	86	75.1	0.0	NE	0.00	4.0	NE	79.7	85.3	85.3	30.187	0.00	0.00	0.000	0.612	88.8	31	54.3	87.0	1405	1	100.0	60
09/05/18	11:00 p	78.6	79.7	78.5	89	75.1	0.0	NE	0.00	4.0	NE	78.6	83.8	83.8	30.192	0.00	0.00	0.000	0.567	88.9	32	55.2	87.4	1405	1	100.0	60
09/06/18	12:00 a	77.6	78.5	77.6	92	75.1	0.0	---	0.00	0.0	---	77.6	82.3	82.3	30.186	0.00	0.00	0.000	0.525	87.1	31	52.8	85.5	1405	1	100.0	60

THURSDAY		Temp	Hi	Low	Out	Dew	Wind	Wind	Wind	Hi	Hi	Wind	Heat	THW			Rain	Heat	Cool	In 	In	In 	In 	Wind	Wind	ISS 	Arc.
Date		Time	Out	Temp	Temp	Hum	Pt.	Speed	Dir	Run	Speed	Dir	Chill	Index	Index	Bar  	Rain	Rate	D-D 	D-D 	Temp	Hum	Dew	Heat	Samp	Tx 	Recept	Int.
09/06/18	1:00 a	76.8	77.6	76.8	93	74.6	0.0	SE	0.00	4.0	SE	76.8	81.0	81.0	30.185	0.00	0.00	0.000	0.492	87.7	32	54.2	86.0	1404	1	100.0	60
09/06/18	2:00 a	76.1	76.8	76.1	94	74.2	0.0	---	0.00	0.0	---	76.1	80.0	80.0	30.175	0.00	0.00	0.000	0.462	87.6	33	54.9	86.1	1405	1	100.0	60
09/06/18	3:00 a	75.3	76.1	75.3	95	73.8	0.0	---	0.00	0.0	---	75.3	79.1	79.1	30.169	0.00	0.00	0.000	0.429	85.9	32	52.6	84.6	1405	1	100.0	60
09/06/18	4:00 a	74.7	75.3	74.7	96	73.5	0.0	---	0.00	0.0	---	74.7	78.2	78.2	30.167	0.00	0.00	0.000	0.404	86.2	33	53.7	85.1	1404	1	100.0	60
09/06/18	5:00 a	74.5	74.7	74.5	97	73.6	0.0	---	0.00	0.0	---	74.5	78.0	78.0	30.168	0.00	0.00	0.000	0.396	86.2	33	53.7	85.1	1405	1	100.0	60
09/06/18	6:00 a	74.0	74.5	74.0	97	73.1	0.0	---	0.00	0.0	---	74.0	77.2	77.2	30.169	0.00	0.00	0.000	0.375	84.6	33	52.3	83.4	1405	1	100.0	60
09/06/18	7:00 a	74.1	74.1	73.8	98	73.5	0.0	---	0.00	0.0	---	74.1	77.5	77.5	30.182	0.00	0.00	0.000	0.379	84.9	34	53.4	83.9	1405	1	100.0	60
09/06/18	8:00 a	75.6	75.6	74.1	99	75.3	0.0	---	0.00	0.0	---	75.6	79.7	79.7	30.178	0.00	0.00	0.000	0.442	85.3	33	52.9	84.1	1405	1	100.0	60
09/06/18	9:00 a	78.0	78.0	75.6	96	76.8	0.0	WNW	0.00	7.0	WNW	78.0	83.6	83.6	30.171	0.00	0.00	0.000	0.542	84.9	33	52.6	83.7	1405	1	100.0	60
09/06/18	10:00 a	82.9	82.9	78.0	86	78.3	0.0	NW	0.00	10.0	WSW	82.9	93.2	93.2	30.172	0.00	0.00	0.000	0.746	87.4	33	54.8	86.0	1405	1	100.0	60
09/06/18	11:00 a	85.8	85.8	82.9	77	77.8	0.0	WSW	0.00	13.0	NW	85.8	97.2	97.2	30.168	0.00	0.00	0.000	0.867	87.9	33	55.2	86.3	1405	1	100.0	60
09/06/18	12:00 p	88.0	88.0	85.8	73	78.3	0.0	WNW	0.00	10.0	NW	88.0	100.4	100.4	30.160	0.00	0.00	0.000	0.958	89.6	30	54.1	88.2	1405	1	100.0	60
09/06/18	1:00 p	88.6	88.9	88.0	68	76.7	0.0	NW	0.00	10.0	ENE	88.6	100.0	100.0	30.142	0.00	0.00	0.000	0.983	90.8	34	58.6	90.7	1405	1	100.0	60
09/06/18	2:00 p	89.6	89.6	88.6	64	75.8	0.0	ENE	0.00	10.0	NE	89.6	101.0	101.0	30.122	0.00	0.00	0.000	1.025	91.4	29	54.7	90.4	1405	1	100.0	60
09/06/18	3:00 p	91.1	91.1	89.5	61	75.8	0.0	ENE	0.00	6.0	ENE	91.1	103.2	103.2	30.103	0.00	0.00	0.000	1.087	93.0	35	61.3	94.0	1405	1	100.0	60
09/06/18	4:00 p	90.5	91.3	90.5	69	78.9	0.0	ENE	0.00	13.0	NNE	90.5	106.8	106.8	30.087	0.00	0.00	0.000	1.063	92.7	28	54.8	91.6	1405	1	100.0	60
09/06/18	5:00 p	86.0	90.5	86.0	71	75.5	0.0	SE	0.00	14.0	S	86.0	95.6	95.6	30.080	0.00	0.00	0.000	0.875	93.0	33	59.6	93.5	1405	1	100.0	60
09/06/18	6:00 p	83.8	86.0	83.7	82	77.7	0.0	ENE	0.00	5.0	SSE	83.8	94.6	94.6	30.075	0.00	0.00	0.000	0.783	91.3	27	52.6	89.6	1405	1	100.0	60
09/06/18	7:00 p	83.4	83.8	83.4	84	78.1	0.0	SSE	0.00	4.0	SSE	83.4	94.0	94.0	30.078	0.00	0.00	0.000	0.767	91.7	34	59.3	92.0	1404	1	100.0	60
09/06/18	8:00 p	81.9	83.4	81.9	85	76.9	0.0	S	0.00	6.0	S	81.9	90.1	90.1	30.095	0.00	0.00	0.000	0.704	88.9	32	55.2	87.4	1405	1	100.0	60
09/06/18	9:00 p	80.2	81.9	80.2	88	76.3	0.0	---	0.00	0.0	---	80.2	86.8	86.8	30.116	0.00	0.00	0.000	0.633	89.4	33	56.5	88.5	1405	1	100.0	60
09/06/18	10:00 p	79.0	80.2	79.0	90	75.8	0.0	ESE	0.00	6.0	SSE	79.0	84.7	84.7	30.125	0.00	0.00	0.000	0.583	87.4	33	54.8	86.0	1405	1	100.0	60
09/06/18	11:00 p	78.0	79.0	78.0	91	75.2	0.0	SE	0.00	4.0	SE	78.0	82.9	82.9	30.128	0.00	0.00	0.000	0.542	87.9	33	55.2	86.3	1405	1	100.0	60
09/07/18	12:00 a	77.1	78.0	77.1	93	74.9	0.0	---	0.00	0.0	---	77.1	81.5	81.5	30.119	0.00	0.00	0.000	0.504	86.2	32	52.9	84.9	1405	1	100.0	60

FRIDAY			Temp	Hi	Low	Out	Dew	Wind	Wind	Wind	Hi	Hi	Wind	Heat	THW			Rain	Heat	Cool	In 	In	In 	In 	Wind	Wind	ISS 	Arc.
Date		Time	Out	Temp	Temp	Hum	Pt.	Speed	Dir	Run	Speed	Dir	Chill	Index	Index	Bar  	Rain	Rate	D-D 	D-D 	Temp	Hum	Dew	Heat	Samp	Tx 	Recept	Int.
09/07/18	1:00 a	76.5	77.1	76.5	95	75.0	0.0	---	0.00	0.0	---	76.5	80.8	80.8	30.114	0.00	0.00	0.000	0.479	86.7	33	54.2	85.5	1404	1	100.0	60
09/07/18	2:00 a	76.1	76.5	76.1	96	74.9	0.0	---	0.00	0.0	---	76.1	80.2	80.2	30.101	0.00	0.00	0.000	0.462	86.3	32	53.0	85.0	1405	1	100.0	60
09/07/18	3:00 a	75.5	76.1	75.5	97	74.6	0.0	---	0.00	0.0	---	75.5	79.4	79.4	30.096	0.00	0.00	0.000	0.438	85.3	33	52.9	84.1	1405	1	100.0	60
09/07/18	4:00 a	74.9	75.5	74.9	97	74.0	0.0	---	0.00	0.0	---	74.9	78.6	78.6	30.096	0.00	0.00	0.000	0.413	85.4	34	53.8	84.4	1405	1	100.0	60
09/07/18	5:00 a	74.6	74.9	74.5	98	74.0	0.0	---	0.00	0.0	---	74.6	78.2	78.2	30.097	0.00	0.00	0.000	0.400	85.4	34	53.8	84.4	1405	1	100.0	60
09/07/18	6:00 a	74.3	74.6	74.3	98	73.7	0.0	---	0.00	0.0	---	74.3	77.8	77.8	30.097	0.00	0.00	0.000	0.388	84.0	33	51.8	82.9	1405	1	100.0	60
09/07/18	7:00 a	73.7	74.3	73.7	98	73.1	0.0	---	0.00	0.0	---	73.7	77.0	77.0	30.103	0.00	0.00	0.000	0.362	84.6	34	53.1	83.6	1405	1	100.0	60
09/07/18	8:00 a	75.0	75.0	73.6	100	75.0	0.0	---	0.00	0.0	---	75.0	78.8	78.8	30.108	0.00	0.00	0.000	0.417	84.9	34	53.4	83.9	1404	1	100.0	60
09/07/18	9:00 a	77.8	77.8	75.0	96	76.6	0.0	---	0.00	0.0	---	77.8	83.2	83.2	30.104	0.00	0.00	0.000	0.533	84.4	33	52.1	83.3	1405	1	100.0	60
09/07/18	10:00 a	82.8	82.8	77.8	84	77.5	0.0	WSW	0.00	5.0	WSW	82.8	92.3	92.3	30.103	0.00	0.00	0.000	0.742	86.6	35	55.7	85.8	1405	1	100.0	60
09/07/18	11:00 a	85.9	85.9	82.8	74	76.6	0.0	NE	0.00	10.0	NE	85.9	96.4	96.4	30.101	0.00	0.00	0.000	0.871	87.0	32	53.6	85.6	1405	1	100.0	60
09/07/18	12:00 p	87.1	87.1	86.0	75	78.2	0.0	SE	0.00	6.0	SE	87.1	99.8	99.8	30.090	0.00	0.00	0.000	0.921	89.1	36	58.7	88.8	1405	1	100.0	60
09/07/18	1:00 p	90.3	90.3	87.1	64	76.5	0.0	ENE	0.00	11.0	NE	90.3	103.0	103.0	30.074	0.00	0.00	0.000	1.054	89.3	29	52.9	87.4	1405	1	100.0	60
09/07/18	2:00 p	91.3	91.8	90.3	64	77.4	0.0	NE	0.00	6.0	ESE	91.3	105.8	105.8	30.058	0.00	0.00	0.000	1.096	92.7	37	62.6	94.5	1405	1	100.0	60
09/07/18	3:00 p	84.7	91.3	84.7	86	80.0	0.0	NE	0.00	15.0	NE	84.7	98.2	98.2	30.039	0.02	0.08	0.000	0.821	91.3	31	56.4	90.8	1405	1	100.0	60
09/07/18	4:00 p	85.9	85.9	84.3	81	79.4	0.0	S	0.00	6.0	SE	85.9	99.0	99.0	30.016	0.00	0.00	0.000	0.871	94.2	35	62.4	95.7	1405	1	100.0	60
09/07/18	5:00 p	87.8	87.8	85.9	71	77.2	0.0	SSE	0.00	13.0	SSE	87.8	99.2	99.2	30.017	0.00	0.00	0.000	0.950	92.7	28	54.8	91.6	1405	1	100.0	60
09/07/18	6:00 p	87.1	87.9	87.1	70	76.1	0.0	SSE	0.00	13.0	ESE	87.1	97.6	97.6	30.012	0.00	0.00	0.000	0.921	94.1	33	60.6	95.0	1405	1	100.0	60
09/07/18	7:00 p	85.2	87.1	85.2	76	76.8	0.0	SE	0.00	10.0	SSE	85.2	95.4	95.4	30.002	0.00	0.00	0.000	0.842	91.7	30	55.9	91.0	1405	1	100.0	60
09/07/18	8:00 p	82.4	85.2	82.4	82	76.3	0.0	SE	0.00	6.0	SE	82.4	90.6	90.6	30.006	0.00	0.00	0.000	0.725	92.1	32	58.0	92.0	1405	1	100.0	60
09/07/18	9:00 p	80.2	82.4	80.2	86	75.6	0.0	E	0.00	5.0	ESE	80.2	86.3	86.3	30.022	0.00	0.00	0.000	0.633	89.7	31	55.0	88.6	1405	1	100.0	60
09/07/18	10:00 p	79.0	80.2	79.0	90	75.8	0.0	---	0.00	0.0	---	79.0	84.7	84.7	30.029	0.00	0.00	0.000	0.583	89.2	29	52.8	87.2	1405	1	100.0	60
09/07/18	11:00 p	78.0	79.0	78.0	91	75.2	0.0	---	0.00	0.0	---	78.0	82.9	82.9	30.032	0.00	0.00	0.000	0.542	88.5	32	54.9	86.8	1405	1	100.0	60
09/08/18	12:00 a	77.2	78.0	77.2	93	75.0	0.0	---	0.00	0.0	---	77.2	81.7	81.7	30.021	0.00	0.00	0.000	0.508	88.2	32	54.6	86.4	1404	1	100.0	60

SATURDAY		Temp	Hi	Low	Out	Dew	Wind	Wind	Wind	Hi	Hi	Wind	Heat	THW			Rain	Heat	Cool	In 	In	In 	In 	Wind	Wind	ISS 	Arc.
Date		Time	Out	Temp	Temp	Hum	Pt.	Speed	Dir	Run	Speed	Dir	Chill	Index	Index	Bar  	Rain	Rate	D-D 	D-D 	Temp	Hum	Dew	Heat	Samp	Tx 	Recept	Int.
09/08/18	1:00 a	76.4	77.2	76.4	94	74.5	0.0	---	0.00	0.0	---	76.4	80.5	80.5	30.024	0.00	0.00	0.000	0.475	86.7	32	53.3	85.3	1403	1	100.0	60
09/08/18	2:00 a	75.7	76.4	75.7	95	74.2	0.0	---	0.00	0.0	---	75.7	79.6	79.6	30.024	0.00	0.00	0.000	0.446	87.0	33	54.4	85.8	1405	1	100.0	60
09/08/18	3:00 a	75.3	75.7	75.3	96	74.1	0.0	---	0.00	0.0	---	75.3	79.1	79.1	29.998	0.00	0.00	0.000	0.429	85.9	32	52.6	84.6	1405	1	100.0	60
09/08/18	4:00 a	74.9	75.3	74.9	97	74.0	0.0	---	0.00	0.0	---	74.9	78.6	78.6	29.986	0.00	0.00	0.000	0.413	85.4	33	53.0	84.2	1405	1	100.0	60
09/08/18	5:00 a	74.2	74.9	74.2	97	73.3	0.0	---	0.00	0.0	---	74.2	77.5	77.5	29.978	0.00	0.00	0.000	0.383	85.7	33	53.3	84.6	1405	1	100.0	60
09/08/18	6:00 a	73.5	74.2	73.5	97	72.6	0.0	---	0.00	0.0	---	73.5	76.7	76.7	29.979	0.00	0.00	0.000	0.354	85.6	34	54.0	84.7	1405	1	100.0	60
09/08/18	7:00 a	72.9	73.5	72.9	98	72.3	0.0	---	0.00	0.0	---	72.9	76.2	76.2	29.977	0.00	0.00	0.000	0.329	84.1	33	51.9	83.0	1405	1	100.0	60
09/08/18	8:00 a	73.9	73.9	72.9	99	73.6	0.0	---	0.00	0.0	---	73.9	77.4	77.4	29.985	0.00	0.00	0.000	0.371	83.2	33	51.1	81.8	1405	1	100.0	60
09/08/18	9:00 a	76.7	76.7	73.9	99	76.4	0.0	---	0.00	0.0	---	76.7	81.5	81.5	29.981	0.00	0.00	0.000	0.487	84.1	33	51.9	83.0	1405	1	100.0	60
09/08/18	10:00 a	80.9	80.9	76.7	88	77.0	0.0	W	0.00	7.0	W	80.9	88.4	88.4	29.977	0.00	0.00	0.000	0.663	85.1	34	53.6	84.1	1405	1	100.0	60
09/08/18	11:00 a	85.1	85.1	80.9	79	77.8	0.0	SW	0.00	5.0	SW	85.1	96.3	96.3	29.971	0.00	0.00	0.000	0.837	88.3	34	56.4	87.0	1404	1	100.0	60
09/08/18	12:00 p	87.0	87.0	85.1	71	76.5	0.0	ENE	0.00	6.0	WSW	87.0	97.9	97.9	29.961	0.00	0.00	0.000	0.917	88.5	32	54.9	86.8	1406	1	100.0	60
09/08/18	1:00 p	90.2	90.2	87.0	69	78.6	0.0	SSW	0.00	5.0	SSE	90.2	105.8	105.8	29.938	0.00	0.00	0.000	1.050	91.4	35	59.9	91.8	1404	1	100.0	60
09/08/18	2:00 p	90.5	91.3	90.2	64	76.7	0.0	W	0.00	6.0	SW	90.5	103.6	103.6	29.925	0.00	0.00	0.000	1.063	90.8	30	55.1	90.0	1405	1	100.0	60
09/08/18	3:00 p	88.0	90.5	88.0	68	76.1	0.0	ENE	0.00	12.0	ENE	88.0	98.1	98.1	29.905	0.00	0.00	0.000	0.958	90.7	33	57.6	90.4	1405	1	100.0	60
09/08/18	4:00 p	86.1	88.0	86.1	81	79.6	0.0	NE	0.00	10.0	NE	86.1	99.6	99.6	29.887	0.01	0.00	0.000	0.879	90.9	34	58.7	90.9	1405	1	100.0	60
09/08/18	5:00 p	74.6	86.1	74.6	94	72.8	5.0	NW	5.00	24.0	NW	74.6	77.9	77.9	29.938	2.01	11.76	0.000	0.400	89.8	34	57.7	89.4	1405	1	100.0	60
09/08/18	6:00 p	74.0	74.6	73.8	99	73.7	0.0	W	0.00	6.0	NE	74.0	77.5	77.5	29.938	1.89	6.62	0.000	0.375	84.8	39	57.1	84.8	1405	1	100.0	60
09/08/18	7:00 p	73.6	74.2	73.5	98	73.0	0.0	SSE	0.00	4.0	SSE	73.6	76.9	76.9	29.933	0.21	2.17	0.000	0.358	87.3	34	55.5	86.2	1405	1	100.0	60
09/08/18	8:00 p	72.9	73.6	72.9	99	72.6	0.0	---	0.00	0.0	---	72.9	76.3	76.3	29.944	0.00	0.00	0.000	0.329	86.3	34	54.6	85.4	1405	1	100.0	60
09/08/18	9:00 p	73.1	73.1	72.9	99	72.8	0.0	---	0.00	0.0	---	73.1	76.5	76.5	29.948	0.00	0.00	0.000	0.337	85.7	33	53.3	84.6	1405	1	100.0	60
09/08/18	10:00 p	73.5	73.6	73.0	100	73.5	0.0	---	0.00	0.0	---	73.5	77.1	77.1	29.958	0.00	0.00	0.000	0.354	84.9	34	53.4	83.9	1405	1	100.0	60
09/08/18	11:00 p	74.6	74.6	73.5	100	74.6	0.0	---	0.00	0.0	---	74.6	78.3	78.3	29.953	0.01	0.00	0.000	0.400	85.0	33	52.7	83.8	1405	1	100.0	60
09/09/18	12:00 a	74.8	74.8	74.5	100	74.8	0.0	---	0.00	0.0	---	74.8	78.6	78.6	29.946	0.00	0.00	0.000	0.408	83.8	33	51.6	82.6	1405	1	100.0	60

SUNDAY			Temp	Hi	Low	Out	Dew	Wind	Wind	Wind	Hi	Hi	Wind	Heat	THW			Rain	Heat	Cool	In 	In	In 	In 	Wind	Wind	ISS 	Arc.
Date		Time	Out	Temp	Temp	Hum	Pt.	Speed	Dir	Run	Speed	Dir	Chill	Index	Index	Bar  	Rain	Rate	D-D 	D-D 	Temp	Hum	Dew	Heat	Samp	Tx 	Recept	Int.
09/09/18	1:00 a	75.3	75.4	74.7	100	75.3	0.0	NNW	0.00	5.0	NNW	75.3	79.3	79.3	29.941	0.00	0.00	0.000	0.429	84.4	34	53.0	83.5	1403	1	100.0	60
09/09/18	2:00 a	74.7	75.4	74.7	100	74.7	0.0	ENE	0.00	6.0	NNE	74.7	78.4	78.4	29.931	0.37	5.76	0.000	0.404	84.5	35	53.8	83.8	1405	1	100.0	60
09/09/18	3:00 a	74.0	74.7	73.9	100	74.0	0.0	NE	0.00	11.0	ENE	74.0	77.6	77.6	29.913	0.00	0.00	0.000	0.375	84.6	36	54.7	84.0	1405	1	100.0	60
09/09/18	4:00 a	73.7	74.0	73.7	100	73.7	0.0	NNE	0.00	4.0	NNE	73.7	77.3	77.3	29.919	0.07	1.23	0.000	0.362	84.2	35	53.6	83.5	1405	1	100.0	60
09/09/18	5:00 a	73.8	73.9	73.7	100	73.8	0.0	---	0.00	0.0	---	73.8	77.4	77.4	29.924	0.04	0.23	0.000	0.367	83.4	35	52.9	82.4	1405	1	100.0	60
09/09/18	6:00 a	73.7	73.8	73.7	100	73.7	0.0	---	0.00	0.0	---	73.7	77.3	77.3	29.925	0.08	0.35	0.000	0.362	83.6	36	53.8	82.9	1405	1	100.0	60
09/09/18	7:00 a	74.1	74.1	73.7	100	74.1	0.0	---	0.00	0.0	---	74.1	77.7	77.7	29.917	0.12	0.87	0.000	0.379	83.6	36	53.8	82.9	1405	1	100.0	60
09/09/18	8:00 a	75.3	75.3	74.0	100	75.3	0.0	---	0.00	0.0	---	75.3	79.3	79.3	29.928	0.01	0.00	0.000	0.429	82.4	36	52.8	81.3	1405	1	100.0	60
09/09/18	9:00 a	77.6	77.6	75.3	100	77.6	0.0	---	0.00	0.0	---	77.6	83.5	83.5	29.932	0.00	0.00	0.000	0.525	83.9	36	54.1	83.3	1405	1	100.0	60
09/09/18	10:00 a	79.3	79.3	77.6	100	79.3	0.0	---	0.00	0.0	---	79.3	87.6	87.6	29.934	0.00	0.00	0.000	0.596	83.4	34	52.1	82.2	1405	1	100.0	60
09/09/18	11:00 a	82.7	82.7	79.3	93	80.5	0.0	S	0.00	4.0	E	82.7	95.4	95.4	29.939	0.00	0.00	0.000	0.737	86.6	36	56.5	86.1	1405	1	100.0	60
09/09/18	12:00 p	85.6	85.6	82.7	84	80.2	0.0	NE	0.00	4.0	NE	85.6	99.6	99.6	29.928	0.00	0.00	0.000	0.858	88.7	33	55.9	87.4	1405	1	100.0	60
09/09/18	1:00 p	85.3	85.9	85.3	79	78.0	0.0	ENE	0.00	4.0	E	85.3	96.8	96.8	29.908	0.00	0.00	0.000	0.846	89.5	36	59.0	89.4	1405	1	100.0	60
09/09/18	2:00 p	84.4	86.4	84.4	81	77.9	0.0	NE	0.00	10.0	NNE	84.4	95.6	95.6	29.899	0.00	0.00	0.000	0.808	89.8	33	56.9	89.2	1404	1	100.0	60
09/09/18	3:00 p	84.3	84.5	84.1	83	78.6	0.0	NE	0.00	4.0	NE	84.3	96.1	96.1	29.871	0.00	0.00	0.000	0.804	90.5	36	59.9	90.8	1405	1	100.0	60
09/09/18	4:00 p	84.0	85.7	84.0	87	79.7	0.0	S	0.00	5.0	SSE	84.0	96.9	96.9	29.865	0.02	0.38	0.000	0.792	89.8	32	56.0	89.0	1405	1	100.0	60
09/09/18	5:00 p	81.3	84.0	81.3	88	77.4	0.0	NE	0.00	5.0	E	81.3	89.5	89.5	29.863	0.00	0.00	0.000	0.679	90.9	35	59.5	91.1	1406	1	100.0	60
09/09/18	6:00 p	80.9	81.3	80.9	90	77.7	0.0	NNE	0.00	4.0	NNE	80.9	89.0	89.0	29.871	0.00	0.00	0.000	0.663	88.7	33	55.9	87.4	1404	1	100.0	60
09/09/18	7:00 p	78.3	80.9	78.3	91	75.5	0.0	NE	0.00	7.0	NNW	78.3	83.5	83.5	29.880	0.00	0.00	0.000	0.554	87.3	33	54.7	86.0	1405	1	100.0	60
09/09/18	8:00 p	77.5	78.3	77.5	92	75.0	0.0	---	0.00	0.0	---	77.5	82.1	82.1	29.893	0.00	0.00	0.000	0.521	87.7	33	55.0	86.2	1405	1	100.0	60
09/09/18	9:00 p	77.2	77.5	77.2	93	75.0	0.0	NNE	0.00	4.0	NNE	77.2	81.7	81.7	29.923	0.00	0.00	0.000	0.508	86.5	33	54.0	85.4	1405	1	100.0	60
09/09/18	10:00 p	75.9	77.2	75.9	95	74.4	0.0	---	0.00	0.0	---	75.9	79.9	79.9	29.935	0.00	0.00	0.000	0.454	87.0	34	55.2	86.0	1405	1	100.0	60
09/09/18	11:00 p	74.9	75.9	74.9	97	74.0	0.0	---	0.00	0.0	---	74.9	78.6	78.6	29.948	0.00	0.00	0.000	0.413	85.0	33	52.7	83.8	1405	1	100.0	60
09/10/18	12:00 a	74.5	74.9	74.5	98	73.9	0.0	---	0.00	0.0	---	74.5	78.1	78.1	29.956	0.00	0.00	0.000	0.396	85.1	34	53.6	84.1	1405	1	100.0	60

MONDAY			Temp	Hi	Low	Out	Dew	Wind	Wind	Wind	Hi	Hi	Wind	Heat	THW			Rain	Heat	Cool	In 	In	In 	In 	Wind	Wind	ISS 	Arc.
Date		Time	Out	Temp	Temp	Hum	Pt.	Speed	Dir	Run	Speed	Dir	Chill	Index	Index	Bar  	Rain	Rate	D-D 	D-D 	Temp	Hum	Dew	Heat	Samp	Tx 	Recept	Int.
09/10/18	1:00 a	73.9	74.5	73.9	98	73.3	0.0	---	0.00	0.0	---	73.9	77.3	77.3	29.952	0.00	0.00	0.000	0.371	85.2	34	53.7	84.2	1404	1	100.0	60
09/10/18	2:00 a	73.3	73.9	73.3	99	73.0	0.0	---	0.00	0.0	---	73.3	76.8	76.8	29.948	0.00	0.00	0.000	0.346	85.2	35	54.5	84.4	1404	1	100.0	60
09/10/18	3:00 a	73.7	73.7	73.2	100	73.7	0.0	WNW	0.00	4.0	WNW	73.7	77.3	77.3	29.945	0.00	0.00	0.000	0.362	85.1	35	54.4	84.3	1405	1	100.0	60
09/10/18	4:00 a	73.9	73.9	73.7	99	73.6	0.0	---	0.00	0.0	---	73.9	77.4	77.4	29.937	0.00	0.00	0.000	0.371	83.7	34	52.3	82.7	1405	1	100.0	60
09/10/18	5:00 a	73.8	73.9	73.7	99	73.5	0.0	---	0.00	0.0	---	73.8	77.3	77.3	29.938	0.00	0.00	0.000	0.367	84.0	35	53.4	83.3	1405	1	100.0	60
09/10/18	6:00 a	73.0	73.8	73.0	98	72.4	0.0	---	0.00	0.0	---	73.0	76.3	76.3	29.944	0.00	0.00	0.000	0.333	84.0	35	53.4	83.3	1405	1	100.0	60
09/10/18	7:00 a	72.5	73.0	72.5	99	72.2	0.0	---	0.00	0.0	---	72.5	75.9	75.9	29.954	0.00	0.00	0.000	0.313	84.2	36	54.4	83.7	1405	1	100.0	60
09/10/18	8:00 a	73.9	73.9	72.5	100	73.9	0.0	---	0.00	0.0	---	73.9	77.5	77.5	29.970	0.00	0.00	0.000	0.371	83.8	34	52.4	82.8	1405	1	100.0	60
09/10/18	9:00 a	76.0	76.0	73.9	99	75.7	0.0	---	0.00	0.0	---	76.0	80.2	80.2	29.979	0.00	0.00	0.000	0.458	84.3	35	53.7	83.6	1405	1	100.0	60
09/10/18	10:00 a	79.5	79.6	76.0	92	77.0	0.0	N	0.00	4.0	N	79.5	86.2	86.2	29.992	0.00	0.00	0.000	0.604	85.7	32	52.4	84.4	1405	1	100.0	60
09/10/18	11:00 a	81.5	81.5	79.5	90	78.3	0.0	NW	0.00	4.0	NW	81.5	90.6	90.6	30.002	0.00	0.00	0.000	0.688	86.0	36	55.9	85.5	1405	1	100.0	60
09/10/18	12:00 p	83.0	83.0	81.5	86	78.4	0.0	---	0.00	0.0	---	83.0	93.4	93.4	29.998	0.00	0.00	0.000	0.750	87.2	37	57.8	86.8	1405	1	100.0	60
09/10/18	1:00 p	85.2	85.2	83.0	82	79.1	0.0	S	0.00	4.0	S	85.2	97.7	97.7	29.988	0.00	0.00	0.000	0.842	87.4	35	56.4	86.4	1405	1	100.0	60
09/10/18	2:00 p	86.8	86.8	85.2	77	78.7	0.0	ESE	0.00	4.0	WNW	86.8	100.0	100.0	29.971	0.00	0.00	0.000	0.908	90.1	36	59.5	90.3	1405	1	100.0	60
09/10/18	3:00 p	87.7	88.0	86.8	75	78.8	0.0	SE	0.00	4.0	SSE	87.7	100.9	100.9	29.950	0.00	0.00	0.000	0.946	90.0	33	57.0	89.5	1405	1	100.0	60
09/10/18	4:00 p	88.2	88.3	87.7	76	79.7	0.0	---	0.00	0.0	---	88.2	102.8	102.8	29.939	0.00	0.00	0.000	0.967	94.4	29	57.2	94.2	1405	1	100.0	60
09/10/18	5:00 p	88.4	88.6	88.2	74	79.1	0.0	SE	0.00	4.0	S	88.4	102.5	102.5	29.932	0.00	0.00	0.000	0.975	92.9	30	56.9	92.6	1404	1	100.0	60
09/10/18	6:00 p	86.9	88.4	86.9	80	80.0	0.0	SSE	0.00	12.0	ESE	86.9	101.8	101.8	29.934	0.00	0.00	0.000	0.913	94.3	36	63.2	96.4	1405	1	100.0	60
09/10/18	7:00 p	84.0	86.9	84.0	86	79.4	0.0	SSE	0.00	11.0	SSE	84.0	96.5	96.5	29.957	0.00	0.00	0.000	0.792	91.8	29	55.0	90.8	1406	1	100.0	60
09/10/18	8:00 p	82.1	84.0	82.1	89	78.5	0.0	---	0.00	0.0	---	82.1	92.0	92.0	29.968	0.00	0.00	0.000	0.712	92.1	37	62.1	93.5	1404	1	100.0	60
09/10/18	9:00 p	80.6	82.1	80.6	91	77.7	0.0	---	0.00	0.0	---	80.6	88.5	88.5	29.996	0.00	0.00	0.000	0.650	88.9	34	56.9	87.9	1405	1	100.0	60
09/10/18	10:00 p	79.1	80.6	79.1	92	76.6	0.0	---	0.00	0.0	---	79.1	85.4	85.4	30.013	0.00	0.00	0.000	0.587	89.7	35	58.4	89.4	1405	1	100.0	60
09/10/18	11:00 p	78.2	79.1	78.2	93	76.0	0.0	---	0.00	0.0	---	78.2	83.6	83.6	30.023	0.00	0.00	0.000	0.550	87.3	33	54.7	86.0	1405	1	100.0	60
09/11/18	12:00 a	77.7	78.2	77.6	95	76.2	0.0	---	0.00	0.0	---	77.7	82.8	82.8	30.026	0.00	0.00	0.000	0.529	87.9	34	56.0	86.5	1405	1	100.0	60

TUESDAY			Temp	Hi	Low	Out	Dew	Wind	Wind	Wind	Hi	Hi	Wind	Heat	THW			Rain	Heat	Cool	In 	In	In 	In 	Wind	Wind	ISS 	Arc.
Date		Time	Out	Temp	Temp	Hum	Pt.	Speed	Dir	Run	Speed	Dir	Chill	Index	Index	Bar  	Rain	Rate	D-D 	D-D 	Temp	Hum	Dew	Heat	Samp	Tx 	Recept	Int.
09/11/18	1:00 a	77.8	77.8	77.6	96	76.6	0.0	---	0.00	0.0	---	77.8	83.2	83.2	30.019	0.00	0.00	0.000	0.533	86.1	33	53.6	85.0	1404	1	100.0	60
09/11/18	2:00 a	77.4	77.8	77.4	96	76.2	0.0	---	0.00	0.0	---	77.4	82.4	82.4	30.015	0.00	0.00	0.000	0.517	86.7	34	55.0	85.7	1405	1	100.0	60
09/11/18	3:00 a	76.7	77.4	76.7	97	75.8	0.0	---	0.00	0.0	---	76.7	81.3	81.3	30.002	0.00	0.00	0.000	0.487	86.7	34	55.0	85.7	1405	1	100.0	60
09/11/18	4:00 a	76.1	76.7	76.1	97	75.2	0.0	---	0.00	0.0	---	76.1	80.3	80.3	30.004	0.00	0.00	0.000	0.462	85.2	34	53.7	84.2	1405	1	100.0	60
09/11/18	5:00 a	75.5	76.1	75.5	98	74.9	0.0	---	0.00	0.0	---	75.5	79.5	79.5	30.008	0.00	0.00	0.000	0.438	85.5	35	54.7	84.8	1405	1	100.0	60
09/11/18	6:00 a	75.0	75.6	75.0	98	74.4	0.0	---	0.00	0.0	---	75.0	78.8	78.8	30.023	0.00	0.00	0.000	0.417	85.5	35	54.7	84.8	1404	1	100.0	60
09/11/18	7:00 a	74.5	75.0	74.5	99	74.2	0.0	---	0.00	0.0	---	74.5	78.1	78.1	30.043	0.00	0.00	0.000	0.396	83.7	34	52.3	82.7	1405	1	100.0	60
09/11/18	8:00 a	75.2	75.2	74.5	100	75.2	0.0	---	0.00	0.0	---	75.2	79.1	79.1	30.058	0.00	0.00	0.000	0.425	84.4	35	53.8	83.7	1405	1	100.0	60
09/11/18	9:00 a	76.5	76.5	75.2	98	75.9	0.0	---	0.00	0.0	---	76.5	81.1	81.1	30.064	0.00	0.00	0.000	0.479	83.3	33	51.2	81.9	1405	1	100.0	60
09/11/18	10:00 a	81.5	81.5	76.5	90	78.3	0.0	SE	0.00	5.0	NNE	81.5	90.6	90.6	30.065	0.00	0.00	0.000	0.688	85.7	34	54.1	84.8	1405	1	100.0	60
09/11/18	11:00 a	85.5	85.5	81.5	83	79.7	0.0	SSE	0.00	5.0	SSE	85.5	98.9	98.9	30.077	0.00	0.00	0.000	0.854	88.9	35	57.7	88.2	1405	1	100.0	60
09/11/18	12:00 p	87.4	87.4	85.5	78	79.7	0.0	SE	0.00	7.0	SE	87.4	101.9	101.9	30.078	0.00	0.00	0.000	0.933	89.3	35	58.1	88.8	1405	1	100.0	60
09/11/18	1:00 p	89.0	89.0	87.4	75	80.0	0.0	ENE	0.00	4.0	ENE	89.0	105.5	105.5	30.067	0.00	0.00	0.000	1.000	90.1	30	54.5	89.1	1405	1	100.0	60
09/11/18	2:00 p	89.9	90.5	89.0	73	80.1	0.0	SE	0.00	17.0	S	89.9	107.6	107.6	30.065	0.00	0.00	0.000	1.038	86.7	31	52.4	85.1	1405	1	100.0	60
09/11/18	3:00 p	87.7	89.9	87.3	79	80.4	0.0	SSW	0.00	12.0	SSW	87.7	103.1	103.1	30.056	0.00	0.00	0.000	0.946	86.7	38	58.1	86.6	1405	1	100.0	60
09/11/18	4:00 p	84.4	87.9	84.4	82	78.3	0.0	SSE	0.00	6.0	SE	84.4	96.0	96.0	30.037	0.00	0.00	0.000	0.808	86.4	37	57.0	86.1	1405	1	100.0	60
09/11/18	5:00 p	83.1	84.4	82.7	87	78.8	0.0	S	0.00	4.0	S	83.1	94.1	94.1	30.039	0.00	0.00	0.000	0.754	86.7	35	55.8	85.9	1405	1	100.0	60
09/11/18	6:00 p	82.9	83.3	82.9	88	79.0	0.0	SE	0.00	4.0	S	82.9	93.9	93.9	30.066	0.00	0.00	0.000	0.746	84.3	34	52.9	83.4	1405	1	100.0	60
09/11/18	7:00 p	81.8	82.9	81.8	90	78.6	0.0	---	0.00	0.0	---	81.8	91.5	91.5	30.062	0.00	0.00	0.000	0.700	87.5	34	55.7	86.3	1405	1	100.0	60
09/11/18	8:00 p	80.5	81.8	80.5	92	78.0	0.0	---	0.00	0.0	---	80.5	88.6	88.6	30.058	0.00	0.00	0.000	0.646	88.0	33	55.3	86.4	1405	1	100.0	60
09/11/18	9:00 p	79.6	80.5	79.6	93	77.4	0.0	---	0.00	0.0	---	79.6	86.7	86.7	30.074	0.00	0.00	0.000	0.608	89.1	34	57.1	88.2	1404	1	100.0	60
09/11/18	10:00 p	79.3	79.6	79.3	95	77.7	0.0	---	0.00	0.0	---	79.3	86.5	86.5	30.087	0.00	0.00	0.000	0.596	89.3	34	57.3	88.5	1405	1	100.0	60
09/11/18	11:00 p	79.0	79.3	78.9	96	77.8	0.0	---	0.00	0.0	---	79.0	86.0	86.0	30.080	0.00	0.00	0.000	0.583	87.1	30	51.9	85.2	1406	1	100.0	60
09/12/18	12:00 a	78.7	79.0	78.7	97	77.8	0.0	---	0.00	0.0	---	78.7	85.5	85.5	30.083	0.00	0.00	0.000	0.571	87.8	34	55.9	86.5	1405	1	100.0	60

WEDNESDAY		Temp	Hi	Low	Out	Dew	Wind	Wind	Wind	Hi	Hi	Wind	Heat	THW			Rain	Heat	Cool	In 	In	In 	In 	Wind	Wind	ISS 	Arc.
Date		Time	Out	Temp	Temp	Hum	Pt.	Speed	Dir	Run	Speed	Dir	Chill	Index	Index	Bar  	Rain	Rate	D-D 	D-D 	Temp	Hum	Dew	Heat	Samp	Tx 	Recept	Int.
09/12/18	1:00 a	78.0	78.7	78.0	98	77.4	0.0	---	0.00	0.0	---	78.0	84.0	84.0	30.085	0.00	0.00	0.000	0.542	87.0	35	56.0	86.2	1403	1	100.0	60
09/12/18	2:00 a	77.6	78.0	77.6	99	77.3	0.0	---	0.00	0.0	---	77.6	83.3	83.3	30.086	0.00	0.00	0.000	0.525	85.2	34	53.7	84.2	1405	1	100.0	60
09/12/18	3:00 a	77.3	77.6	77.3	99	77.0	0.0	---	0.00	0.0	---	77.3	82.7	82.7	30.093	0.00	0.00	0.000	0.513	85.7	35	54.9	85.0	1405	1	100.0	60
09/12/18	4:00 a	76.9	77.3	76.9	99	76.6	0.0	---	0.00	0.0	---	76.9	81.9	81.9	30.092	0.00	0.00	0.000	0.496	85.8	35	55.0	85.1	1405	1	100.0	60
09/12/18	5:00 a	76.2	76.9	76.2	99	75.9	0.0	---	0.00	0.0	---	76.2	80.6	80.6	30.089	0.00	0.00	0.000	0.467	83.9	34	52.5	83.0	1405	1	100.0	60
09/12/18	6:00 a	75.5	76.2	75.5	99	75.2	0.0	---	0.00	0.0	---	75.5	79.5	79.5	30.103	0.00	0.00	0.000	0.438	85.1	35	54.4	84.3	1405	1	100.0	60
09/12/18	7:00 a	75.2	75.5	75.1	100	75.2	0.0	---	0.00	0.0	---	75.2	79.1	79.1	30.116	0.00	0.00	0.000	0.425	85.3	35	54.5	84.5	1405	1	100.0	60
09/12/18	8:00 a	77.1	77.1	75.2	100	77.1	0.0	---	0.00	0.0	---	77.1	82.4	82.4	30.133	0.00	0.00	0.000	0.504	84.9	33	52.6	83.7	1405	1	100.0	60
09/12/18	9:00 a	79.1	79.1	77.1	100	79.1	0.0	---	0.00	0.0	---	79.1	87.1	87.1	30.131	0.00	0.00	0.000	0.587	85.1	35	54.4	84.3	1404	1	100.0	60
09/12/18	10:00 a	82.4	82.4	79.1	87	78.1	0.0	NE	0.00	4.0	NE	82.4	92.2	92.2	30.140	0.00	0.00	0.000	0.725	87.3	34	55.5	86.2	1406	1	100.0	60
09/12/18	11:00 a	85.5	85.6	82.4	77	77.5	0.0	NE	0.00	12.0	SSW	85.5	96.5	96.5	30.140	0.00	0.00	0.000	0.854	88.0	34	56.1	86.6	1404	1	100.0	60
09/12/18	12:00 p	86.8	86.8	85.6	69	75.4	0.0	ENE	0.00	7.0	ENE	86.8	96.7	96.7	30.137	0.00	0.00	0.000	0.908	89.8	33	56.9	89.2	1405	1	100.0	60
09/12/18	1:00 p	87.5	87.7	86.8	73	77.8	0.0	NE	0.00	7.0	ENE	87.5	99.6	99.6	30.123	0.00	0.00	0.000	0.938	89.2	31	54.6	87.6	1405	1	100.0	60
09/12/18	2:00 p	88.3	88.3	87.2	68	76.4	0.0	ENE	0.00	10.0	SSW	88.3	99.1	99.1	30.112	0.00	0.00	0.000	0.971	89.4	31	54.8	88.0	1405	1	100.0	60
09/12/18	3:00 p	87.4	88.6	87.4	73	77.7	0.0	ENE	0.00	10.0	NE	87.4	99.4	99.4	30.101	0.00	0.00	0.000	0.933	90.9	34	58.7	90.9	1405	1	100.0	60
09/12/18	4:00 p	85.7	87.4	85.7	74	76.5	0.0	NE	0.00	11.0	ENE	85.7	95.9	95.9	30.092	0.00	0.00	0.000	0.862	92.9	32	58.7	93.1	1405	1	100.0	60
09/12/18	5:00 p	85.1	85.7	85.1	73	75.5	0.0	NE	0.00	13.0	E	85.1	94.2	94.2	30.092	0.00	0.00	0.000	0.837	94.2	34	61.5	95.4	1405	1	100.0	60
09/12/18	6:00 p	83.7	85.1	83.7	78	76.1	0.0	NE	0.00	10.0	E	83.7	93.0	93.0	30.097	0.00	0.00	0.000	0.779	91.9	31	56.9	91.5	1405	1	100.0	60
09/12/18	7:00 p	81.8	83.7	81.8	86	77.2	0.0	ENE	0.00	7.0	ENE	81.8	90.2	90.2	30.096	0.00	0.00	0.000	0.700	90.7	33	57.6	90.4	1405	1	100.0	60
09/12/18	8:00 p	80.3	81.8	80.3	88	76.4	0.0	NE	0.00	5.0	E	80.3	87.0	87.0	30.099	0.00	0.00	0.000	0.638	88.8	31	54.3	87.0	1405	1	100.0	60
09/12/18	9:00 p	79.4	80.3	79.4	90	76.2	0.0	ENE	0.00	6.0	ENE	79.4	85.5	85.5	30.107	0.00	0.00	0.000	0.600	89.1	34	57.1	88.2	1405	1	100.0	60
09/12/18	10:00 p	79.1	79.5	79.1	92	76.6	0.0	NE	0.00	11.0	NE	79.1	85.4	85.4	30.106	0.00	0.00	0.000	0.587	88.3	33	55.6	86.8	1405	1	100.0	60
09/12/18	11:00 p	78.5	79.1	78.5	93	76.3	0.0	NE	0.00	6.0	NE	78.5	84.3	84.3	30.108	0.00	0.00	0.000	0.563	87.6	34	55.8	86.3	1405	1	100.0	60
09/13/18	12:00 a	78.7	78.7	78.5	94	76.8	0.0	NE	0.00	6.0	NNE	78.7	84.9	84.9	30.097	0.00	0.00	0.000	0.571	86.5	33	54.0	85.4	1405	1	100.0	60

THURSDAY		Temp	Hi	Low	Out	Dew	Wind	Wind	Wind	Hi	Hi	Wind	Heat	THW			Rain	Heat	Cool	In 	In	In 	In 	Wind	Wind	ISS 	Arc.
Date		Time	Out	Temp	Temp	Hum	Pt.	Speed	Dir	Run	Speed	Dir	Chill	Index	Index	Bar  	Rain	Rate	D-D 	D-D 	Temp	Hum	Dew	Heat	Samp	Tx 	Recept	Int.
09/13/18	1:00 a	78.0	78.7	78.0	96	76.8	0.0	NNE	0.00	4.0	NNE	78.0	83.6	83.6	30.082	0.00	0.00	0.000	0.542	86.9	35	56.0	86.1	1402	1	100.0	60
09/13/18	2:00 a	78.1	78.1	77.9	98	77.5	0.0	NE	0.00	4.0	NE	78.1	84.2	84.2	30.068	0.00	0.00	0.000	0.546	86.4	33	53.9	85.3	1405	1	100.0	60
09/13/18	3:00 a	78.3	78.3	78.0	96	77.1	0.0	NNE	0.00	4.0	ENE	78.3	84.3	84.3	30.060	0.00	0.00	0.000	0.554	86.1	35	55.2	85.4	1405	1	100.0	60
09/13/18	4:00 a	78.8	78.8	78.3	96	77.6	0.0	NE	0.00	4.0	NE	78.8	85.5	85.5	30.054	0.00	0.00	0.000	0.575	86.6	37	57.2	86.3	1405	1	100.0	60
09/13/18	5:00 a	79.4	79.4	78.8	96	78.2	0.0	NE	0.00	4.0	NE	79.4	87.0	87.0	30.042	0.00	0.00	0.000	0.600	85.0	36	55.1	84.4	1405	1	100.0	60
09/13/18	6:00 a	80.1	80.1	79.4	95	78.5	0.0	ENE	0.00	4.0	ENE	80.1	88.4	88.4	30.042	0.00	0.00	0.000	0.629	86.2	37	56.9	85.9	1405	1	100.0	60
09/13/18	7:00 a	80.2	80.3	80.1	95	78.6	0.0	NE	0.00	16.0	NE	80.2	88.6	88.6	30.049	0.00	0.00	0.000	0.633	84.9	35	54.2	84.1	1405	1	100.0	60
09/13/18	8:00 a	80.3	80.3	80.2	96	79.1	0.0	NE	0.00	19.0	ENE	80.3	89.2	89.2	30.063	0.00	0.00	0.000	0.638	86.0	38	57.4	85.8	1405	1	100.0	60
09/13/18	9:00 a	80.5	80.5	80.3	95	78.9	4.0	NE	4.00	18.0	NNE	80.5	89.4	89.4	30.051	0.00	0.00	0.000	0.646	84.8	36	54.9	84.2	1405	1	100.0	60
09/13/18	10:00 a	80.7	80.8	80.3	95	79.1	4.0	NE	4.00	24.0	NE	80.7	89.9	89.9	30.057	0.00	0.00	0.000	0.654	86.2	39	58.3	86.2	1405	1	100.0	60
09/13/18	11:00 a	80.9	80.9	80.6	95	79.3	5.0	NE	5.00	25.0	NE	80.9	90.4	90.4	30.057	0.00	0.00	0.000	0.663	84.9	38	56.5	84.7	1405	1	100.0	60
09/13/18	12:00 p	81.4	81.4	80.7	93	79.2	6.0	NE	6.00	27.0	NNE	81.4	91.3	91.3	30.040	0.00	0.00	0.000	0.683	86.4	39	58.5	86.5	1405	1	100.0	60
09/13/18	1:00 p	81.5	81.8	81.4	93	79.3	6.0	NE	6.00	25.0	NE	81.5	91.6	91.6	30.021	0.00	0.00	0.000	0.688	86.1	40	59.0	86.3	1404	1	100.0	60
09/13/18	2:00 p	81.8	82.0	81.4	92	79.2	6.0	NE	6.00	25.0	E	81.8	92.2	92.2	30.009	0.00	0.00	0.000	0.700	85.9	39	58.1	85.9	1405	1	100.0	60
09/13/18	3:00 p	80.7	81.8	80.6	95	79.1	5.0	NE	5.00	29.0	NNE	80.7	89.9	89.9	29.989	0.01	0.00	0.000	0.654	86.7	42	60.9	87.5	1405	1	100.0	60
09/13/18	4:00 p	81.2	81.5	80.7	94	79.3	6.0	NE	6.00	30.0	ENE	81.2	91.0	91.0	29.984	0.00	0.00	0.000	0.675	86.0	40	58.9	86.2	1405	1	100.0	60
09/13/18	5:00 p	81.0	81.4	81.0	94	79.1	6.0	NE	6.00	29.0	ENE	81.0	90.4	90.4	29.969	0.00	0.00	0.000	0.667	87.0	43	61.8	88.1	1405	1	100.0	60
09/13/18	6:00 p	80.9	81.1	80.9	94	79.0	5.0	NE	5.00	25.0	E	80.9	90.1	90.1	29.958	0.00	0.00	0.000	0.663	85.5	40	58.4	85.6	1405	1	100.0	60
09/13/18	7:00 p	81.0	81.0	80.8	94	79.1	6.0	NE	6.00	28.0	NE	81.0	90.4	90.4	29.961	0.00	0.00	0.000	0.667	85.9	40	58.8	86.1	1405	1	100.0	60
09/13/18	8:00 p	80.6	81.0	80.6	94	78.7	5.0	NE	5.00	25.0	NNE	80.6	89.4	89.4	29.948	0.00	0.00	0.000	0.650	84.2	38	55.8	84.1	1405	1	100.0	60
09/13/18	9:00 p	80.4	80.7	80.4	92	77.9	6.0	NE	6.00	26.0	ENE	80.4	88.3	88.3	29.950	0.00	0.00	0.000	0.642	84.2	39	56.6	84.3	1405	1	100.0	60
09/13/18	10:00 p	80.3	80.5	80.2	94	78.4	5.0	NE	5.00	30.0	NE	80.3	88.6	88.6	29.957	0.00	0.00	0.000	0.638	83.0	39	55.5	82.5	1405	1	100.0	60
09/13/18	11:00 p	80.5	80.5	80.1	92	78.0	5.0	NE	5.00	32.0	NE	80.5	88.6	88.6	29.965	0.00	0.00	0.000	0.646	84.3	43	59.4	85.0	1405	1	100.0	60
09/14/18	12:00 a	80.2	80.6	80.2	93	78.0	5.0	NE	5.00	31.0	NE	80.2	88.1	88.1	29.939	0.00	0.00	0.000	0.633	83.3	41	57.1	83.3	1405	1	100.0	60

FRIDAY			Temp	Hi	Low	Out	Dew	Wind	Wind	Wind	Hi	Hi	Wind	Heat	THW			Rain	Heat	Cool	In 	In	In 	In 	Wind	Wind	ISS 	Arc.
Date		Time	Out	Temp	Temp	Hum	Pt.	Speed	Dir	Run	Speed	Dir	Chill	Index	Index	Bar  	Rain	Rate	D-D 	D-D 	Temp	Hum	Dew	Heat	Samp	Tx 	Recept	Int.
09/14/18	1:00 a	80.3	80.6	80.2	93	78.1	4.0	NE	4.00	26.0	NE	80.3	88.3	88.3	29.942	0.00	0.00	0.000	0.638	84.7	44	60.4	85.6	1404	1	100.0	60
09/14/18	2:00 a	80.3	80.3	79.9	93	78.1	4.0	NE	4.00	31.0	ENE	80.3	88.3	88.3	29.938	0.00	0.00	0.000	0.638	84.7	40	57.7	84.9	1405	1	100.0	60
09/14/18	3:00 a	80.7	80.8	80.3	92	78.2	4.0	NE	4.00	20.0	NNE	80.7	89.1	89.1	29.920	0.00	0.00	0.000	0.654	84.4	43	59.5	85.1	1404	1	100.0	60
09/14/18	4:00 a	80.7	80.7	80.6	91	77.8	0.0	NE	0.00	18.0	N	80.7	88.8	88.8	29.925	0.00	0.00	0.000	0.654	85.1	41	58.8	85.4	1405	1	100.0	60
09/14/18	5:00 a	80.9	81.0	80.5	89	77.4	0.0	NE	0.00	19.0	NNE	80.9	88.7	88.7	29.925	0.00	0.00	0.000	0.663	84.0	42	58.4	84.6	1405	1	100.0	60
09/14/18	6:00 a	80.4	81.0	80.3	89	76.9	0.0	ENE	0.00	18.0	ENE	80.4	87.5	87.5	29.930	0.00	0.00	0.000	0.642	84.9	43	59.9	85.6	1405	1	100.0	60
09/14/18	7:00 a	80.2	80.5	80.2	91	77.3	0.0	NE	0.00	18.0	NE	80.2	87.5	87.5	29.942	0.00	0.00	0.000	0.633	83.1	42	57.6	83.2	1405	1	100.0	60
09/14/18	8:00 a	79.8	80.2	79.7	92	77.3	0.0	NE	0.00	24.0	NE	79.8	86.9	86.9	29.960	0.00	0.00	0.000	0.617	84.8	44	60.5	85.6	1405	1	100.0	60
09/14/18	9:00 a	77.9	79.8	77.9	95	76.4	0.0	NE	0.00	26.0	NE	77.9	83.2	83.2	29.957	0.02	0.00	0.000	0.538	83.8	38	55.5	83.6	1405	1	100.0	60
09/14/18	10:00 a	78.9	78.9	77.8	94	77.0	0.0	NE	0.00	20.0	NE	78.9	85.4	85.4	29.972	0.00	0.00	0.000	0.579	84.7	41	58.4	85.0	1405	1	100.0	60
09/14/18	11:00 a	78.8	79.6	78.8	94	76.9	0.0	NNE	0.00	13.0	ENE	78.8	85.1	85.1	29.979	0.02	0.05	0.000	0.575	84.9	37	55.7	84.5	1405	1	100.0	60
09/14/18	12:00 p	78.2	78.8	78.1	98	77.6	0.0	ESE	0.00	10.0	SSE	78.2	84.5	84.5	29.976	0.07	0.15	0.000	0.550	84.9	40	57.9	85.0	1405	1	100.0	60
09/14/18	1:00 p	80.5	80.5	78.2	96	79.3	0.0	ENE	0.00	15.0	ENE	80.5	89.7	89.7	29.972	0.00	0.00	0.000	0.646	85.7	40	58.6	85.9	1405	1	100.0	60
09/14/18	2:00 p	83.9	83.9	80.6	88	80.0	0.0	NE	0.00	15.0	NE	83.9	96.9	96.9	29.968	0.00	0.00	0.000	0.788	85.4	39	57.6	85.4	1405	1	100.0	60
09/14/18	3:00 p	84.8	85.6	83.9	85	79.8	0.0	NE	0.00	20.0	ENE	84.8	97.9	97.9	29.944	0.00	0.00	0.000	0.825	86.7	38	58.1	86.6	1405	1	100.0	60
09/14/18	4:00 p	83.3	84.8	83.3	88	79.4	0.0	NE	0.00	18.0	SE	83.3	95.1	95.1	29.946	0.00	0.00	0.000	0.763	86.9	40	59.7	87.3	1404	1	100.0	60
09/14/18	5:00 p	82.1	83.3	82.1	89	78.5	0.0	NE	0.00	17.0	SW	82.1	92.0	92.0	29.952	0.00	0.00	0.000	0.712	87.1	38	58.4	87.0	1405	1	100.0	60
09/14/18	6:00 p	80.6	82.1	80.6	90	77.4	0.0	NE	0.00	19.0	ENE	80.6	88.2	88.2	29.960	0.00	0.00	0.000	0.650	86.2	40	59.0	86.4	1405	1	100.0	60
09/14/18	7:00 p	78.8	80.6	78.8	92	76.3	0.0	ENE	0.00	11.0	S	78.8	84.7	84.7	29.960	0.00	0.00	0.000	0.575	85.2	36	55.2	84.6	1405	1	100.0	60
09/14/18	8:00 p	78.0	78.8	78.0	92	75.5	0.0	S	0.00	20.0	S	78.0	83.0	83.0	29.980	0.00	0.00	0.000	0.542	85.4	40	58.3	85.5	1405	1	100.0	60
09/14/18	9:00 p	76.2	78.0	76.1	92	73.7	0.0	SSW	0.00	18.0	SSW	76.2	80.0	80.0	30.004	0.00	0.00	0.000	0.467	84.4	36	54.5	83.9	1405	1	100.0	60
09/14/18	10:00 p	74.9	76.5	74.9	95	73.4	0.0	ENE	0.00	12.0	SW	74.9	78.5	78.5	30.000	0.04	0.14	0.000	0.413	84.4	39	56.7	84.4	1405	1	100.0	60
09/14/18	11:00 p	74.8	74.9	74.4	98	74.2	0.0	NE	0.00	4.0	SSE	74.8	78.5	78.5	30.002	0.00	0.00	0.000	0.408	84.8	39	57.1	84.8	1405	1	100.0	60
09/15/18	12:00 a	75.8	75.8	74.8	98	75.2	0.0	NE	0.00	5.0	NE	75.8	79.9	79.9	30.010	0.00	0.00	0.000	0.450	83.6	38	55.3	83.3	1406	1	100.0	60

SATURDAY		Temp	Hi	Low	Out	Dew	Wind	Wind	Wind	Hi	Hi	Wind	Heat	THW			Rain	Heat	Cool	In 	In	In 	In 	Wind	Wind	ISS 	Arc.
Date		Time	Out	Temp	Temp	Hum	Pt.	Speed	Dir	Run	Speed	Dir	Chill	Index	Index	Bar  	Rain	Rate	D-D 	D-D 	Temp	Hum	Dew	Heat	Samp	Tx 	Recept	Int.
09/15/18	1:00 a	76.6	76.6	75.8	98	76.0	0.0	ENE	0.00	13.0	NNE	76.6	81.2	81.2	29.989	0.01	0.00	0.000	0.483	84.1	39	56.5	84.2	1403	1	100.0	60
09/15/18	2:00 a	76.8	76.8	76.2	98	76.2	0.0	NE	0.00	10.0	NE	76.8	81.6	81.6	29.978	0.00	0.00	0.000	0.492	84.4	40	57.4	84.6	1405	1	100.0	60
09/15/18	3:00 a	77.7	77.7	76.7	98	77.1	0.0	NE	0.00	7.0	ENE	77.7	83.4	83.4	29.971	0.00	0.00	0.000	0.529	83.2	39	55.7	82.8	1405	1	100.0	60
09/15/18	4:00 a	78.4	78.4	77.7	97	77.5	0.0	ENE	0.00	12.0	NNE	78.4	84.8	84.8	29.965	0.00	0.00	0.000	0.558	83.8	40	56.9	84.0	1404	1	100.0	60
09/15/18	5:00 a	78.0	78.4	78.0	95	76.5	0.0	NE	0.00	17.0	NE	78.0	83.4	83.4	29.972	0.00	0.00	0.000	0.542	84.2	39	56.6	84.3	1406	1	100.0	60
09/15/18	6:00 a	76.9	78.0	76.8	94	75.0	0.0	NE	0.00	16.0	ENE	76.9	81.3	81.3	29.991	0.01	0.00	0.000	0.496	83.4	40	56.5	83.3	1404	1	100.0	60
09/15/18	7:00 a	76.8	76.9	76.6	95	75.3	0.0	NNE	0.00	16.0	NE	76.8	81.2	81.2	30.007	0.00	0.00	0.000	0.492	84.0	41	57.8	84.5	1405	1	100.0	60
09/15/18	8:00 a	76.9	77.1	76.7	92	74.4	0.0	NE	0.00	19.0	NE	76.9	81.1	81.1	30.016	0.00	0.00	0.000	0.496	82.3	38	54.2	81.4	1405	1	100.0	60
09/15/18	9:00 a	77.4	77.4	76.9	88	73.6	0.0	NNE	0.00	5.0	E	77.4	81.5	81.5	30.012	0.01	0.00	0.000	0.517	83.5	39	55.9	83.3	1405	1	100.0	60
09/15/18	10:00 a	78.2	78.2	77.4	89	74.7	0.0	NE	0.00	4.0	NE	78.2	83.0	83.0	30.030	0.00	0.00	0.000	0.550	82.8	38	54.6	82.1	1405	1	100.0	60
09/15/18	11:00 a	80.7	80.7	78.2	91	77.8	0.0	NE	0.00	12.0	NE	80.7	88.8	88.8	30.039	0.00	0.00	0.000	0.654	84.0	39	56.4	84.1	1405	1	100.0	60
09/15/18	12:00 p	82.3	82.4	80.7	88	78.4	0.0	NE	0.00	17.0	NE	82.3	92.2	92.2	30.038	0.00	0.00	0.000	0.721	84.8	38	56.4	84.6	1405	1	100.0	60
09/15/18	1:00 p	82.3	82.4	82.1	86	77.7	0.0	NE	0.00	11.0	SSE	82.3	91.6	91.6	30.030	0.00	0.00	0.000	0.721	85.3	39	57.5	85.3	1405	1	100.0	60
09/15/18	2:00 p	82.1	82.6	82.0	87	77.8	0.0	NE	0.00	19.0	NE	82.1	91.3	91.3	30.025	0.00	0.00	0.000	0.712	86.1	41	59.6	86.5	1405	1	100.0	60
09/15/18	3:00 p	81.7	82.2	81.7	88	77.8	0.0	NE	0.00	13.0	NNE	81.7	90.6	90.6	30.021	0.00	0.00	0.000	0.696	81.2	45	57.8	80.9	1405	1	100.0	60
09/15/18	4:00 p	81.4	81.7	81.1	90	78.2	0.0	NE	0.00	19.0	NE	81.4	90.4	90.4	30.021	0.00	0.00	0.000	0.683	81.7	44	57.7	81.4	1405	1	100.0	60
09/15/18	5:00 p	80.6	81.4	80.6	90	77.4	0.0	NE	0.00	17.0	ENE	80.6	88.2	88.2	30.024	0.00	0.00	0.000	0.650	80.4	45	57.1	80.0	1405	1	100.0	60
09/15/18	6:00 p	79.8	80.7	79.8	91	76.9	0.0	NE	0.00	21.0	NE	79.8	86.6	86.6	30.026	0.00	0.00	0.000	0.617	81.5	45	58.1	81.3	1405	1	100.0	60
09/15/18	7:00 p	79.3	79.9	79.3	92	76.8	0.0	NE	0.00	19.0	NE	79.3	85.8	85.8	30.036	0.00	0.00	0.000	0.596	79.2	42	54.1	78.6	1404	1	100.0	60
09/15/18	8:00 p	78.5	79.3	78.5	94	76.6	0.0	NE	0.00	14.0	NE	78.5	84.4	84.4	30.043	0.00	0.00	0.000	0.563	79.8	46	57.2	79.5	1406	1	100.0	60
09/15/18	9:00 p	77.6	78.5	77.6	95	76.1	0.0	NE	0.00	15.0	NNE	77.6	82.6	82.6	30.053	0.00	0.00	0.000	0.525	78.4	44	54.7	77.9	1404	1	100.0	60
09/15/18	10:00 p	76.9	77.7	76.9	96	75.7	1.0	NE	1.00	19.0	ENE	76.9	81.5	81.5	30.056	0.01	0.00	0.000	0.496	79.2	46	56.6	79.0	1406	1	100.0	60
09/15/18	11:00 p	76.6	76.9	76.6	95	75.1	0.0	NE	0.00	15.0	NE	76.6	80.9	80.9	30.064	0.00	0.00	0.000	0.483	78.1	42	53.1	77.4	1404	1	100.0	60
09/16/18	12:00 a	76.9	76.9	76.6	95	75.4	0.0	NE	0.00	16.0	NNE	76.9	81.4	81.4	30.059	0.00	0.00	0.000	0.496	78.2	46	55.7	77.9	1405	1	100.0	60

SUNDAY			Temp	Hi	Low	Out	Dew	Wind	Wind	Wind	Hi	Hi	Wind	Heat	THW			Rain	Heat	Cool	In 	In	In 	In 	Wind	Wind	ISS 	Arc.
Date		Time	Out	Temp	Temp	Hum	Pt.	Speed	Dir	Run	Speed	Dir	Chill	Index	Index	Bar  	Rain	Rate	D-D 	D-D 	Temp	Hum	Dew	Heat	Samp	Tx 	Recept	Int.
09/16/18	1:00 a	77.0	77.1	76.9	95	75.5	0.0	NE	0.00	15.0	NE	77.0	81.5	81.5	30.053	0.00	0.00	0.000	0.500	77.5	45	54.5	77.0	1404	1	100.0	60
09/16/18	2:00 a	76.7	77.0	76.7	95	75.2	0.0	ENE	0.00	5.0	ENE	76.7	81.0	81.0	30.045	0.00	0.00	0.000	0.487	78.2	46	55.7	77.9	1405	1	100.0	60
09/16/18	3:00 a	76.4	76.8	76.4	95	74.9	0.0	NE	0.00	5.0	ENE	76.4	80.6	80.6	30.036	0.00	0.00	0.000	0.475	78.6	47	56.7	78.4	1405	1	100.0	60
09/16/18	4:00 a	76.3	76.4	76.2	95	74.8	0.0	ENE	0.00	4.0	SSE	76.3	80.5	80.5	30.035	0.00	0.00	0.000	0.471	78.8	47	56.9	78.7	1405	1	100.0	60
09/16/18	5:00 a	76.5	76.5	76.2	96	75.3	0.0	NE	0.00	4.0	NE	76.5	80.9	80.9	30.033	0.00	0.00	0.000	0.479	78.9	48	57.5	78.9	1405	1	100.0	60
09/16/18	6:00 a	76.2	76.6	76.2	94	74.3	0.0	NE	0.00	4.0	W	76.2	80.2	80.2	30.039	0.00	0.00	0.000	0.467	77.5	45	54.5	77.0	1405	1	100.0	60
09/16/18	7:00 a	76.5	76.5	76.2	96	75.3	0.0	NE	0.00	4.0	NE	76.5	80.9	80.9	30.049	0.00	0.00	0.000	0.479	81.2	43	56.6	80.6	1405	1	100.0	60
09/16/18	8:00 a	77.5	77.5	76.5	94	75.6	0.0	NE	0.00	6.0	ENE	77.5	82.3	82.3	30.066	0.00	0.00	0.000	0.521	82.2	40	55.5	81.6	1405	1	100.0	60
09/16/18	9:00 a	78.3	78.3	77.5	93	76.1	0.0	NNE	0.00	4.0	NNE	78.3	83.8	83.8	30.074	0.00	0.00	0.000	0.554	83.2	40	56.4	83.0	1404	1	100.0	60
09/16/18	10:00 a	79.9	80.0	78.3	90	76.7	0.0	ENE	0.00	12.0	NE	79.9	86.6	86.6	30.093	0.00	0.00	0.000	0.621	82.5	38	54.3	81.7	1406	1	100.0	60
09/16/18	11:00 a	82.3	82.3	80.0	85	77.3	0.0	ENE	0.00	7.0	SSW	82.3	91.2	91.2	30.097	0.00	0.00	0.000	0.721	84.2	40	57.3	84.5	1404	1	100.0	60
09/16/18	12:00 p	83.5	83.6	82.3	83	77.8	0.0	NE	0.00	12.0	NE	83.5	94.0	94.0	30.094	0.00	0.00	0.000	0.771	85.9	38	57.3	85.7	1405	1	100.0	60
09/16/18	1:00 p	84.0	84.0	83.5	80	77.2	0.0	ENE	0.00	10.0	SSW	84.0	94.5	94.5	30.091	0.00	0.00	0.000	0.792	85.8	40	58.7	86.0	1405	1	100.0	60
09/16/18	2:00 p	84.7	85.1	84.0	78	77.1	0.0	SSE	0.00	14.0	ESE	84.7	95.1	95.1	30.080	0.00	0.00	0.000	0.821	87.0	37	57.6	86.7	1405	1	100.0	60
09/16/18	3:00 p	83.5	84.7	83.4	79	76.3	0.0	NE	0.00	7.0	ENE	83.5	92.8	92.8	30.063	0.00	0.00	0.000	0.771	87.5	40	60.2	87.8	1405	1	100.0	60
09/16/18	4:00 p	82.7	83.5	82.7	81	76.3	0.0	SE	0.00	6.0	ESE	82.7	91.1	91.1	30.055	0.00	0.00	0.000	0.737	87.2	36	57.0	86.6	1405	1	100.0	60
09/16/18	5:00 p	81.8	82.7	81.8	82	75.8	0.0	S	0.00	12.0	S	81.8	89.0	89.0	30.055	0.00	0.00	0.000	0.700	87.1	39	59.1	87.2	1405	1	100.0	60
09/16/18	6:00 p	80.9	81.8	80.9	84	75.6	0.0	ENE	0.00	4.0	ENE	80.9	87.3	87.3	30.068	0.00	0.00	0.000	0.663	87.7	40	60.4	87.9	1405	1	100.0	60
09/16/18	7:00 p	79.8	80.9	79.8	86	75.2	0.0	E	0.00	4.0	S	79.8	85.5	85.5	30.065	0.00	0.00	0.000	0.617	85.5	36	55.5	84.9	1405	1	100.0	60
09/16/18	8:00 p	78.8	79.8	78.8	88	74.9	0.0	---	0.00	0.0	---	78.8	83.9	83.9	30.072	0.00	0.00	0.000	0.575	86.1	38	57.5	85.9	1405	1	100.0	60
09/16/18	9:00 p	78.4	78.9	78.4	89	74.9	0.0	---	0.00	0.0	---	78.4	83.4	83.4	30.085	0.00	0.00	0.000	0.558	84.7	35	54.0	83.9	1405	1	100.0	60
09/16/18	10:00 p	78.1	78.4	78.1	90	74.9	0.0	SSE	0.00	4.0	SSE	78.1	83.0	83.0	30.079	0.00	0.00	0.000	0.546	85.0	38	56.5	84.7	1404	1	100.0	60
09/16/18	11:00 p	77.9	78.1	77.9	90	74.7	0.0	E	0.00	4.0	E	77.9	82.6	82.6	30.079	0.00	0.00	0.000	0.538	84.4	35	53.8	83.7	1405	1	100.0	60

MONDAY			Temp	Hi	Low	Out	Dew	Wind	Wind	Wind	Hi	Hi	Wind	Heat	THW			Rain	Heat	Cool	In 	In	In 	In 	Wind	Wind	ISS 	Arc.
Date		Time	Out	Temp	Temp	Hum	Pt.	Speed	Dir	Run	Speed	Dir	Chill	Index	Index	Bar  	Rain	Rate	D-D 	D-D 	Temp	Hum	Dew	Heat	Samp	Tx 	Recept	Int.
09/17/18	1:00 a	77.3	77.7	77.3	93	75.1	0.0	SE	0.00	4.0	SE	77.3	81.9	81.9	30.067	0.00	0.00	0.000	0.513	84.6	39	56.9	84.6	1403	1	100.0	60
09/17/18	2:00 a	77.0	77.3	77.0	94	75.1	0.0	SE	0.00	4.0	SE	77.0	81.4	81.4	30.054	0.00	0.00	0.000	0.500	84.6	37	55.5	84.2	1405	1	100.0	60
09/17/18	3:00 a	76.6	77.0	76.6	94	74.7	0.0	SSE	0.00	5.0	SSW	76.6	80.8	80.8	30.047	0.00	0.00	0.000	0.483	83.5	38	55.2	83.1	1405	1	100.0	60
09/17/18	4:00 a	76.3	76.7	76.3	96	75.1	0.0	E	0.00	4.0	E	76.3	80.5	80.5	30.036	0.00	0.00	0.000	0.471	83.9	38	55.6	83.7	1405	1	100.0	60
09/17/18	5:00 a	76.2	76.3	76.2	96	75.0	0.0	SE	0.00	4.0	ESE	76.2	80.4	80.4	30.030	0.00	0.00	0.000	0.467	84.1	39	56.5	84.2	1405	1	100.0	60
09/17/18	6:00 a	76.2	76.3	76.2	97	75.3	0.0	S	0.00	4.0	S	76.2	80.5	80.5	30.036	0.00	0.00	0.000	0.467	83.9	37	54.8	83.5	1405	1	100.0	60
09/17/18	7:00 a	76.3	76.4	76.2	98	75.7	0.0	---	0.00	0.0	---	76.3	80.7	80.7	30.031	0.00	0.00	0.000	0.471	83.2	38	55.0	82.7	1405	1	100.0	60
09/17/18	8:00 a	77.7	77.7	76.3	97	76.8	0.0	SE	0.00	10.0	SE	77.7	83.2	83.2	30.035	0.00	0.00	0.000	0.529	84.1	39	56.5	84.2	1405	1	100.0	60
09/17/18	9:00 a	79.8	79.8	77.7	92	77.3	0.0	S	0.00	12.0	ESE	79.8	86.9	86.9	30.028	0.00	0.00	0.000	0.617	84.7	36	54.8	84.1	1405	1	100.0	60
09/17/18	10:00 a	81.4	81.5	79.8	90	78.2	0.0	SSE	0.00	7.0	SSE	81.4	90.4	90.4	30.029	0.00	0.00	0.000	0.683	81.8	41	55.8	81.2	1405	1	100.0	60
09/17/18	11:00 a	82.1	82.1	81.4	88	78.2	0.0	ESE	0.00	10.0	S	82.1	91.7	91.7	30.029	0.00	0.00	0.000	0.712	81.0	45	57.7	80.6	1404	1	100.0	60
09/17/18	12:00 p	82.4	82.5	82.1	87	78.1	0.0	SE	0.00	11.0	SSE	82.4	92.2	92.2	30.018	0.00	0.00	0.000	0.725	80.1	42	54.9	79.3	1405	1	100.0	60
09/17/18	1:00 p	83.3	83.4	82.4	87	79.0	0.0	ESE	0.00	5.0	SE	83.3	94.7	94.7	30.000	0.00	0.00	0.000	0.763	81.4	46	58.6	81.2	1405	1	100.0	60
09/17/18	2:00 p	84.1	84.1	83.2	83	78.4	0.0	SSE	0.00	7.0	ESE	84.1	95.7	95.7	29.975	0.00	0.00	0.000	0.796	81.5	38	53.4	80.4	1405	1	100.0	60
09/17/18	3:00 p	84.5	84.5	84.1	83	78.8	0.0	SSE	0.00	11.0	SSW	84.5	96.5	96.5	29.949	0.00	0.00	0.000	0.813	81.6	45	58.2	81.4	1405	1	100.0	60
09/17/18	4:00 p	83.5	84.6	83.5	83	77.8	0.0	SSE	0.00	15.0	S	83.5	94.0	94.0	29.931	0.00	0.00	0.000	0.771	82.3	38	54.2	81.4	1405	1	100.0	60
09/17/18	5:00 p	83.8	83.9	83.1	86	79.2	0.0	SSE	0.00	6.0	E	83.8	95.9	95.9	29.907	0.00	0.00	0.000	0.783	82.5	44	58.4	82.6	1405	1	100.0	60
09/17/18	6:00 p	83.5	83.8	83.3	86	78.9	0.0	SSE	0.00	5.0	ESE	83.5	95.0	95.0	29.914	0.00	0.00	0.000	0.771	83.4	45	59.8	84.1	1405	1	100.0	60
09/17/18	7:00 p	82.4	83.7	82.4	86	77.8	0.0	SSE	0.00	6.0	SSE	82.4	91.8	91.8	29.900	0.00	0.00	0.000	0.725	82.2	42	56.8	81.8	1405	1	100.0	60
09/17/18	8:00 p	80.5	82.4	80.4	90	77.3	0.0	---	0.00	0.0	---	80.5	88.0	88.0	29.902	0.00	0.00	0.000	0.646	87.0	37	57.6	86.7	1405	1	100.0	60
09/17/18	9:00 p	79.3	80.5	79.3	93	77.1	0.0	SSE	0.00	10.0	SSE	79.3	86.0	86.0	29.919	0.00	0.00	0.000	0.596	85.9	37	56.6	85.6	1405	1	100.0	60
09/17/18	10:00 p	78.9	79.3	78.8	94	77.0	0.0	SE	0.00	10.0	SE	78.9	85.4	85.4	29.917	0.00	0.00	0.000	0.579	86.3	39	58.4	86.4	1405	1	100.0	60
09/17/18	11:00 p	78.9	78.9	78.8	95	77.3	0.0	S	0.00	12.0	E	78.9	85.6	85.6	29.904	0.00	0.00	0.000	0.579	84.7	37	55.5	84.3	1405	1	100.0	60
09/18/18	12:00 a	78.7	78.9	78.7	95	77.1	0.0	E	0.00	4.0	E	78.7	85.1	85.1	29.890	0.00	0.00	0.000	0.571	85.1	39	57.4	85.0	1405	1	100.0	60

TUESDAY			Temp	Hi	Low	Out	Dew	Wind	Wind	Wind	Hi	Hi	Wind	Heat	THW			Rain	Heat	Cool	In 	In	In 	In 	Wind	Wind	ISS 	Arc.
Date		Time	Out	Temp	Temp	Hum	Pt.	Speed	Dir	Run	Speed	Dir	Chill	Index	Index	Bar  	Rain	Rate	D-D 	D-D 	Temp	Hum	Dew	Heat	Samp	Tx 	Recept	Int.
09/18/18	1:00 a	78.2	78.7	78.2	96	77.0	0.0	S	0.00	4.0	S	78.2	84.1	84.1	29.887	0.00	0.00	0.000	0.550	85.4	38	56.9	85.2	1403	1	100.0	60
09/18/18	2:00 a	77.9	78.2	77.8	96	76.7	0.0	---	0.00	0.0	---	77.9	83.4	83.4	29.884	0.00	0.00	0.000	0.538	84.0	38	55.7	83.9	1405	1	100.0	60
09/18/18	3:00 a	78.2	78.2	77.8	96	77.0	0.0	---	0.00	0.0	---	78.2	84.1	84.1	29.870	0.00	0.00	0.000	0.550	84.6	39	56.9	84.6	1405	1	100.0	60
09/18/18	4:00 a	78.3	78.3	78.2	96	77.1	0.0	SW	0.00	4.0	SW	78.3	84.3	84.3	29.853	0.00	0.00	0.000	0.554	85.0	40	58.0	85.1	1405	1	100.0	60
09/18/18	5:00 a	78.4	78.4	78.3	95	76.8	0.0	---	0.00	0.0	---	78.4	84.4	84.4	29.847	0.00	0.00	0.000	0.558	83.5	38	55.2	83.1	1405	1	100.0	60
09/18/18	6:00 a	78.5	78.6	78.4	95	76.9	0.0	W	0.00	4.0	W	78.5	84.6	84.6	29.842	0.00	0.00	0.000	0.563	84.2	39	56.6	84.3	1405	1	100.0	60
09/18/18	7:00 a	78.7	78.7	78.5	95	77.1	0.0	---	0.00	0.0	---	78.7	85.1	85.1	29.839	0.00	0.00	0.000	0.571	84.7	40	57.7	84.9	1405	1	100.0	60
09/18/18	8:00 a	79.1	79.1	78.6	95	77.5	0.0	N	0.00	4.0	NNW	79.1	86.0	86.0	29.835	0.00	0.00	0.000	0.587	83.6	36	53.8	82.9	1405	1	100.0	60
09/18/18	9:00 a	80.5	80.5	79.1	94	78.6	0.0	ESE	0.00	10.0	SSW	80.5	89.1	89.1	29.820	0.00	0.00	0.000	0.646	84.9	39	57.2	84.8	1405	1	100.0	60
09/18/18	10:00 a	83.1	83.1	80.5	88	79.2	0.0	SSW	0.00	15.0	SSW	83.1	94.4	94.4	29.811	0.00	0.00	0.000	0.754	84.8	34	53.3	83.8	1405	1	100.0	60
09/18/18	11:00 a	85.0	85.1	83.1	82	78.9	0.0	SW	0.00	19.0	S	85.0	97.2	97.2	29.801	0.00	0.00	0.000	0.833	87.2	41	60.6	87.8	1405	1	100.0	60
09/18/18	12:00 p	87.0	87.0	84.9	78	79.3	0.0	SW	0.00	20.0	S	87.0	101.1	101.1	29.785	0.00	0.00	0.000	0.917	87.2	33	54.6	85.9	1405	1	100.0	60
09/18/18	1:00 p	87.9	87.9	85.8	72	77.7	0.0	SSW	0.00	21.0	SSW	87.9	99.8	99.8	29.774	0.00	0.00	0.000	0.954	89.6	35	58.3	89.3	1405	1	100.0	60
09/18/18	2:00 p	87.4	88.4	87.4	70	76.4	0.0	SSW	0.00	18.0	W	87.4	98.1	98.1	29.759	0.00	0.00	0.000	0.933	89.1	37	59.4	89.1	1404	1	100.0	60
09/18/18	3:00 p	88.2	88.3	87.4	67	75.9	0.0	SSW	0.00	21.0	SW	88.2	98.3	98.3	29.737	0.00	0.00	0.000	0.967	91.2	33	58.1	91.1	1405	1	100.0	60
09/18/18	4:00 p	87.3	88.4	87.3	66	74.5	0.0	WNW	0.00	22.0	SSW	87.3	96.4	96.4	29.731	0.00	0.00	0.000	0.929	91.3	35	59.8	91.6	1405	1	100.0	60
09/18/18	5:00 p	84.9	87.3	84.9	72	74.9	0.0	SSW	0.00	18.0	SSE	84.9	93.4	93.4	29.739	0.00	0.00	0.000	0.829	92.0	35	60.4	92.6	1405	1	100.0	60
09/18/18	6:00 p	83.6	84.9	83.6	74	74.4	0.0	SSW	0.00	15.0	SSW	83.6	91.3	91.3	29.746	0.00	0.00	0.000	0.775	89.7	35	58.4	89.4	1405	1	100.0	60
09/18/18	7:00 p	81.6	83.6	81.6	78	74.1	0.0	WSW	0.00	7.0	WSW	81.6	87.4	87.4	29.753	0.00	0.00	0.000	0.692	90.3	36	59.7	90.6	1405	1	100.0	60
09/18/18	8:00 p	78.9	81.6	78.9	89	75.4	0.0	W	0.00	5.0	WNW	78.9	84.3	84.3	29.765	0.00	0.00	0.000	0.579	86.4	32	53.1	85.1	1405	1	100.0	60
09/18/18	9:00 p	75.5	78.9	75.5	95	74.0	0.0	N	0.00	15.0	N	75.5	79.3	79.3	29.792	0.01	0.00	0.000	0.438	87.6	37	58.1	87.1	1405	1	100.0	60
09/18/18	10:00 p	75.0	75.5	74.8	94	73.2	0.0	N	0.00	14.0	NNW	75.0	78.6	78.6	29.803	0.01	0.00	0.000	0.417	86.6	33	54.1	85.4	1405	1	100.0	60
09/18/18	11:00 p	75.7	75.7	75.0	92	73.2	0.0	NW	0.00	10.0	NW	75.7	79.3	79.3	29.806	0.00	0.00	0.000	0.446	86.4	36	56.3	85.9	1405	1	100.0	60
09/19/18	12:00 a	75.1	75.7	75.1	93	72.9	0.0	---	0.00	0.0	---	75.1	78.7	78.7	29.808	0.00	0.00	0.000	0.421	86.2	34	54.5	85.3	1406	1	100.0	60

WEDNESDAY		Temp	Hi	Low	Out	Dew	Wind	Wind	Wind	Hi	Hi	Wind	Heat	THW			Rain	Heat	Cool	In 	In	In 	In 	Wind	Wind	ISS 	Arc.
Date		Time	Out	Temp	Temp	Hum	Pt.	Speed	Dir	Run	Speed	Dir	Chill	Index	Index	Bar  	Rain	Rate	D-D 	D-D 	Temp	Hum	Dew	Heat	Samp	Tx 	Recept	Int.
09/19/18	1:00 a	74.6	75.1	74.5	95	73.1	0.0	---	0.00	0.0	---	74.6	78.0	78.0	29.806	0.00	0.00	0.000	0.400	85.2	35	54.5	84.4	1403	1	100.0	60
09/19/18	2:00 a	73.7	74.5	73.7	96	72.5	0.0	---	0.00	0.0	---	73.7	76.8	76.8	29.801	0.00	0.00	0.000	0.362	84.2	35	53.6	83.5	1404	1	100.0	60
09/19/18	3:00 a	73.2	73.7	73.1	97	72.3	0.0	---	0.00	0.0	---	73.2	76.3	76.3	29.804	0.00	0.00	0.000	0.342	84.6	36	54.7	84.0	1405	1	100.0	60
09/19/18	4:00 a	74.0	74.0	73.0	93	71.8	0.0	NW	0.00	6.0	W	74.0	76.8	76.8	29.809	0.00	0.00	0.000	0.375	83.6	35	53.1	82.7	1405	1	100.0	60
09/19/18	5:00 a	74.1	74.3	74.0	90	71.0	0.0	WNW	0.00	10.0	WNW	74.1	76.6	76.6	29.816	0.00	0.00	0.000	0.379	83.3	36	53.6	82.4	1406	1	100.0	60
09/19/18	6:00 a	73.5	74.1	73.5	91	70.7	0.0	NW	0.00	10.0	NW	73.5	76.0	76.0	29.835	0.00	0.00	0.000	0.354	83.7	37	54.7	83.2	1404	1	100.0	60
09/19/18	7:00 a	72.9	73.5	72.9	92	70.4	0.0	N	0.00	5.0	N	72.9	75.5	75.5	29.837	0.00	0.00	0.000	0.329	83.9	36	54.1	83.3	1405	1	100.0	60
09/19/18	8:00 a	73.4	73.4	72.8	94	71.6	0.0	---	0.00	0.0	---	73.4	76.2	76.2	29.856	0.00	0.00	0.000	0.350	82.3	36	52.7	81.2	1405	1	100.0	60
09/19/18	9:00 a	76.1	76.1	73.4	90	73.0	0.0	NW	0.00	11.0	N	76.1	79.6	79.6	29.871	0.00	0.00	0.000	0.462	83.6	38	55.3	83.3	1405	1	100.0	60
09/19/18	10:00 a	78.2	78.2	76.1	84	73.0	0.0	WNW	0.00	12.0	WNW	78.2	82.3	82.3	29.890	0.00	0.00	0.000	0.550	83.7	33	51.5	82.5	1405	1	100.0	60
09/19/18	11:00 a	80.4	80.4	78.2	81	74.0	0.0	ENE	0.00	10.0	NW	80.4	85.5	85.5	29.897	0.00	0.00	0.000	0.642	84.3	34	52.9	83.4	1405	1	100.0	60
09/19/18	12:00 p	83.0	83.0	80.4	75	74.3	0.0	ENE	0.00	13.0	NNW	83.0	90.1	90.1	29.901	0.00	0.00	0.000	0.750	87.0	40	59.8	87.4	1405	1	100.0	60
09/19/18	1:00 p	83.8	83.9	83.0	72	73.8	0.0	NE	0.00	7.0	NNE	83.8	91.1	91.1	29.906	0.00	0.00	0.000	0.783	87.1	33	54.5	85.9	1405	1	100.0	60
09/19/18	2:00 p	84.6	84.6	83.8	72	74.6	0.0	NNW	0.00	7.0	ENE	84.6	92.8	92.8	29.890	0.00	0.00	0.000	0.817	89.3	39	61.1	90.0	1405	1	100.0	60
09/19/18	3:00 p	85.3	85.4	84.6	70	74.4	0.0	NW	0.00	11.0	NW	85.3	93.6	93.6	29.882	0.00	0.00	0.000	0.846	89.4	30	53.9	87.8	1405	1	100.0	60
09/19/18	4:00 p	85.1	85.3	85.0	71	74.6	0.0	NE	0.00	16.0	NW	85.1	93.5	93.5	29.886	0.00	0.00	0.000	0.837	92.1	34	59.7	92.5	1405	1	100.0	60
09/19/18	5:00 p	84.6	85.3	84.4	72	74.6	0.0	NW	0.00	7.0	NNE	84.6	92.8	92.8	29.893	0.00	0.00	0.000	0.817	92.6	38	63.3	94.7	1404	1	100.0	60
09/19/18	6:00 p	83.8	84.7	83.8	74	74.6	0.0	NE	0.00	7.0	NNE	83.8	91.8	91.8	29.910	0.00	0.00	0.000	0.783	92.9	32	58.7	93.1	1405	1	100.0	60
09/19/18	7:00 p	81.0	83.8	81.0	79	73.9	0.0	NE	0.00	6.0	ENE	81.0	86.3	86.3	29.920	0.00	0.00	0.000	0.667	90.6	35	59.2	90.7	1405	1	100.0	60
09/19/18	8:00 p	79.5	81.0	79.5	74	70.5	0.0	NE	0.00	5.0	ENE	79.5	82.6	82.6	29.942	0.00	0.00	0.000	0.604	90.3	32	56.4	89.7	1405	1	100.0	60
09/19/18	9:00 p	78.6	79.6	78.5	78	71.2	0.0	ENE	0.00	4.0	ENE	78.6	81.9	81.9	29.961	0.00	0.00	0.000	0.567	88.6	34	56.6	87.5	1405	1	100.0	60
09/19/18	10:00 p	76.4	78.6	76.4	84	71.2	0.0	---	0.00	0.0	---	76.4	79.7	79.7	29.982	0.00	0.00	0.000	0.475	88.8	36	58.4	88.3	1405	1	100.0	60
09/19/18	11:00 p	74.8	76.4	74.8	92	72.3	0.0	---	0.00	0.0	---	74.8	78.1	78.1	30.002	0.00	0.00	0.000	0.408	86.7	35	55.8	85.9	1405	1	100.0	60
09/20/18	12:00 a	74.1	74.8	74.0	93	71.9	0.0	---	0.00	0.0	---	74.1	76.9	76.9	30.012	0.00	0.00	0.000	0.379	86.6	36	56.5	86.1	1405	1	100.0	60

THURSDAY		Temp	Hi	Low	Out	Dew	Wind	Wind	Wind	Hi	Hi	Wind	Heat	THW			Rain	Heat	Cool	In 	In	In 	In 	Wind	Wind	ISS 	Arc.
Date		Time	Out	Temp	Temp	Hum	Pt.	Speed	Dir	Run	Speed	Dir	Chill	Index	Index	Bar  	Rain	Rate	D-D 	D-D 	Temp	Hum	Dew	Heat	Samp	Tx 	Recept	Int.
09/20/18	1:00 a	73.0	74.1	73.0	94	71.2	0.0	---	0.00	0.0	---	73.0	75.7	75.7	30.016	0.00	0.00	0.000	0.333	86.4	36	56.3	85.9	1404	1	100.0	60
09/20/18	2:00 a	72.0	73.0	72.0	95	70.5	0.0	---	0.00	0.0	---	72.0	74.8	74.8	30.010	0.00	0.00	0.000	0.292	84.7	35	54.0	83.9	1405	1	100.0	60
09/20/18	3:00 a	71.0	72.0	71.0	96	69.8	0.0	---	0.00	0.0	---	71.0	73.9	73.9	30.013	0.00	0.00	0.000	0.250	84.9	36	55.0	84.3	1405	1	100.0	60
09/20/18	4:00 a	70.2	71.1	70.2	96	69.0	0.0	---	0.00	0.0	---	70.2	72.9	72.9	30.013	0.00	0.00	0.000	0.217	84.6	37	55.5	84.2	1405	1	100.0	60

			Temp	Hi	Low	Out	Dew	Wind	Wind	Wind	Hi	Hi	Wind	Heat	THW			Rain	Heat	Cool	In 	In	In 	In 	Wind	Wind	ISS 	Arc.
Date		Time	Out	Temp	Temp	Hum	Pt.	Speed	Dir	Run	Speed	Dir	Chill	Index	Index	Bar  	Rain	Rate	D-D 	D-D 	Temp	Hum	Dew	Heat	Samp	Tx 	Recept	Int.